Date StartTime U_cm/s V_cm/s W_cm/s Ustd_cm/s Vstd_cm/s Wstd_cm/s Uvar_(cm/s)^2 Vvar_(cm/s)^2 Wvar_(cm/s)^2 KE_(m/s)^2 TurbulentKE_(m/s)^2 HorizWindSpeed_cm/s FrictionSpeec_cm/s DragCoef SpeedOfSound_m/s SonicTemperature_C Pressure_mb 
09/27/2013  11:31:00        9.673       38.079        2.937       33.584       31.112       49.330     1127.896      967.975     2433.424        0.304        0.226       39.288       31.907        0.660      338.719       11.561      865.316
09/27/2013  11:32:00       85.876       81.322       17.961      101.511       67.206       46.395    10304.562     4516.610     2152.530        1.564        0.849      118.271       34.776        0.086      338.876       11.823      865.307
09/27/2013  11:33:00      186.400      101.611       43.934       79.591       63.662       57.597     6334.799     4052.826     3317.413        3.035        0.685      212.297       40.738        0.037      338.396       11.017      865.286
09/27/2013  11:34:00       74.469       83.546       85.647       76.538       68.219       62.751     5858.002     4653.857     3937.680        1.715        0.722      111.917       51.736        0.214      339.087       12.179      865.277
09/27/2013  11:35:00       50.076      108.257      134.894       76.581       81.018       57.064     5864.649     6563.977     3256.356        2.405        0.784      119.277       51.138        0.184      338.770       11.645      865.262
09/27/2013  11:36:00       45.751       59.680       79.034       75.668       78.010       62.467     5725.633     6085.535     3902.116        1.380        0.786       75.199       59.693        0.630      338.935       11.924      865.270
09/27/2013  11:37:00       18.965       24.577       35.637       31.102       49.465       40.526      967.308     2446.796     1642.337        0.364        0.253       31.044       33.538        1.167      339.558       12.974      865.287
09/27/2013  11:38:00       62.252      -52.986       54.378       92.521      123.111       77.947     8560.208    15156.331     6075.745        1.971        1.490       81.748       97.171        1.413      339.325       12.579      865.281
09/27/2013  11:39:00       78.300       74.510       69.507       99.278       80.091       54.182     9856.200     6414.520     2935.741        1.786        0.960      108.087       37.210        0.119      339.236       12.431      865.281
09/27/2013  11:40:00      184.520      117.415       53.197       55.335       41.904       50.136     3061.985     1755.975     2513.628        2.900        0.367      218.709       20.446        0.009      338.553       11.280      865.271
09/27/2013  11:41:00       98.904       82.869       36.819       47.949       41.038       44.867     2299.082     1684.147     2013.075        1.200        0.300      129.032       29.163        0.051      339.060       12.134      865.275
09/27/2013  11:42:00       78.503       52.925       14.099       57.198       40.636       36.878     3271.589     1651.245     1359.966        0.772        0.314       94.677       22.435        0.056      339.128       12.249      865.285
09/27/2013  11:43:00       -5.138       18.861       28.729       30.464       38.201       28.524      928.046     1459.312      813.641        0.220        0.160       19.549       15.175        0.603      339.475       12.834      865.270
09/27/2013  11:44:00      135.002       87.221        7.913      101.218       72.403       50.978    10245.157     5242.151     2598.743        2.199        0.904      160.726       25.778        0.026      338.848       11.778      865.263
09/27/2013  11:45:00      149.118      104.847       29.769      141.554       88.516       59.063    20037.435     7835.151     3488.461        3.273        1.568      182.289       42.044        0.053      338.673       11.483      865.245
09/27/2013  11:46:00      185.655      122.264       36.071       81.985       72.457       49.275     6721.590     5250.066     2427.980        3.256        0.720      222.297       29.224        0.017      338.436       11.084      865.210
09/27/2013  11:47:00      146.542      107.511       51.079       79.162       71.029       61.015     6266.556     5045.121     3722.882        2.534        0.752      181.750       18.363        0.010      338.983       12.002      865.158
09/27/2013  11:48:00       59.512       40.307      100.838       91.285      112.699       64.299     8332.877    12700.974     4134.421        2.025        1.258       71.877       72.048        1.005      339.492       12.860      865.134
09/27/2013  11:49:00       34.704      -35.854       20.967       58.953       76.177       39.795     3475.466     5802.907     1583.652        0.689        0.543       49.899       27.982        0.314      339.048       12.115      865.130
09/27/2013  11:50:00       29.509       24.409       15.419       51.953       51.130       37.061     2699.118     2614.292     1373.503        0.419        0.334       38.295       22.408        0.342      339.022       12.070      865.112
09/27/2013  11:51:00       57.717       59.988       63.489       79.065       64.734       50.236     6251.316     4190.532     2523.658        1.196        0.648       83.246       20.836        0.063      339.357       12.634      865.095
09/27/2013  11:52:00       49.130       84.274       82.877       76.084       69.868       59.935     5788.704     4881.511     3592.148        1.532        0.713       97.549       46.838        0.231      339.287       12.516      865.089
09/27/2013  11:53:00       52.446       -3.726       52.436       81.650       98.185       57.771     6666.648     9640.200     3337.502        1.258        0.982       52.578       73.169        1.937      339.363       12.645      865.098
09/27/2013  11:54:00       45.746     -115.604       -4.336       59.930       78.257       43.213     3591.602     6124.193     1867.351        1.353        0.579      124.326       30.615        0.061      338.653       11.450      865.118
09/27/2013  11:55:00       57.087     -150.160       21.014       57.969      110.257       49.271     3360.432    12156.522     2427.605        2.209        0.897      160.646       56.687        0.125      338.845       11.773      865.121
09/27/2013  11:56:00       99.237     -139.345      -14.863       54.254       85.393       44.191     2943.547     7291.904     1952.825        2.083        0.609      171.071       52.941        0.096      338.675       11.487      865.110
09/27/2013  11:57:00       17.959      -32.603       16.734       27.655       71.522       45.312      764.816     5115.394     2053.136        0.480        0.397       37.222       50.097        1.811      338.861       11.800      865.093
09/27/2013  11:58:00      -41.643       35.081       -2.691       51.830       41.790       29.534     2686.350     1746.416      872.231        0.414        0.265       54.450       25.414        0.218      339.018       12.065      865.066
09/27/2013  11:59:00     -149.259      -28.313       -9.027       35.757       49.902       24.745     1278.568     2490.231      612.301        1.377        0.219      151.921       17.909        0.014      338.797       11.693      865.055
09/27/2013  12:00:00     -112.786      -25.196       -6.330       43.824       50.677       29.572     1920.580     2568.138      874.527        0.938        0.268      115.566       18.919        0.027      338.732       11.585      865.052
09/27/2013  12:01:00      -59.161       -6.183      -11.442       40.106       30.640       24.676     1608.524      938.799      608.898        0.341        0.158       59.483       25.813        0.188      338.933       11.922      865.046
09/27/2013  12:02:00        4.127       20.673       37.382       34.964       42.553       25.208     1222.455     1810.728      635.444        0.275        0.183       21.081       17.975        0.727      339.678       13.176      865.050
09/27/2013  12:03:00      167.218       79.191       38.255      112.476       67.566       54.169    12650.760     4565.231     2934.234        2.792        1.008      185.022       32.413        0.031      339.542       12.944      865.030
09/27/2013  12:04:00      183.677       88.583       27.584       90.321       63.306       54.889     8157.861     4007.614     3012.786        2.876        0.759      203.922       37.703        0.034      338.888       11.844      865.035
09/27/2013  12:05:00       74.867      -15.596       46.141      100.897      109.717       75.330    10180.175    12037.879     5674.609        1.793        1.395       76.474       75.492        0.974      339.398       12.704      865.049
09/27/2013  12:06:00       51.919       79.504       88.979       62.293       75.410       60.009     3880.367     5686.741     3601.106        1.505        0.658       94.955       54.544        0.330      339.255       12.463      865.057
09/27/2013  12:07:00      174.880      139.957       89.214      113.120       77.262       73.681    12796.154     5969.442     5428.865        4.116        1.210      223.989       57.301        0.065      338.930       11.913      865.058
09/27/2013  12:08:00       38.753       13.128       31.073       47.401       50.257       40.502     2246.816     2525.763     1640.378        0.453        0.321       40.916       31.171        0.580      339.324       12.580      865.054
09/27/2013  12:09:00      108.997       78.469       54.949       58.896       58.132       43.510     3468.714     3379.367     1893.099        1.490        0.437      134.305       32.460        0.058      339.065       12.144      865.033
09/27/2013  12:10:00       53.189     -107.746       13.981       68.127      116.596       57.918     4641.354    13594.661     3354.538        1.811        1.080      120.159       60.673        0.255      339.132       12.254      865.028
09/27/2013  12:11:00       84.567     -126.646      -14.558       83.237      107.690       51.282     6928.328    11597.215     2629.842        2.227        1.058      152.286       60.182        0.156      339.021       12.066      865.022
09/27/2013  12:12:00       17.201      -32.161       15.098       41.795       41.395       41.116     1746.849     1713.582     1690.524        0.335        0.258       36.472       29.001        0.632      339.864       13.491      865.000
09/27/2013  12:13:00       41.512     -118.018      -10.399       33.405       35.878       25.703     1115.887     1287.225      660.649        0.941        0.153      125.106       12.531        0.010      338.952       11.954      865.000
09/27/2013  12:14:00       29.446      -91.039      -13.193       31.357       23.743       24.528      983.286      563.724      601.600        0.574        0.107       95.682        8.070        0.007      338.589       11.342      865.022
09/27/2013  12:15:00      116.241     -131.898       -0.208      124.010      150.303       80.289    15378.590    22590.961     6446.276        3.765        2.221      175.810      103.944        0.350      339.099       12.200      865.004
09/27/2013  12:16:00       31.623      -31.261       37.726       61.881       89.335       70.821     3829.259     7980.676     5015.593        1.011        0.841       44.467       60.176        1.831      339.366       12.650      864.984
09/27/2013  12:17:00       -7.595      -65.880       12.476       65.485       92.064       58.488     4288.234     8475.734     3420.848        1.037        0.809       66.317       58.647        0.782      339.369       12.655      864.955
09/27/2013  12:18:00        5.611      -46.814       30.267       56.437       77.205       42.881     3185.176     5960.673     1838.738        0.706        0.549       47.149       37.353        0.628      339.871       13.503      864.922
09/27/2013  12:19:00       19.301     -147.054      -11.296       90.546       94.682       55.751     8198.612     8964.598     3108.125        2.119        1.014      148.315       55.447        0.140      339.358       12.636      864.913
09/27/2013  12:20:00       -7.426      -72.746       -1.358       57.190       70.233       39.299     3270.639     4932.700     1544.393        0.755        0.487       73.124       38.855        0.282      339.683       13.184      864.901
09/27/2013  12:21:00       50.032     -160.860      -40.032       83.795       83.768       40.557     7021.537     7017.104     1644.854        2.283        0.784      168.461       30.249        0.032      339.422       12.742      864.877
09/27/2013  12:22:00      -18.015      -95.921       -3.697       63.002       55.663       37.865     3969.292     3098.339     1433.738        0.902        0.425       97.598       35.689        0.134      339.743       13.285      864.864
09/27/2013  12:23:00      -40.590     -116.118       -4.559       48.393       69.999       39.820     2341.921     4899.793     1585.669        1.199        0.441      123.007       15.703        0.016      339.490       12.858      864.856
09/27/2013  12:24:00      -40.147      -55.488       13.091       61.661       45.501       37.804     3802.048     2070.361     1429.142        0.608        0.365       68.489       27.060        0.156      339.568       12.991      864.856
09/27/2013  12:25:00        8.518       -7.682       18.109       73.519       49.905       34.627     5405.101     2490.481     1199.008        0.478        0.455       11.470       40.387       12.397      339.427       12.753      864.874
09/27/2013  12:26:00      113.451       98.803       85.250       71.090       53.694       54.703     5053.811     2882.998     2992.393        2.041        0.546      150.443       31.731        0.044      339.431       12.757      864.864
09/27/2013  12:27:00       90.910       78.263       61.491       89.201       81.457       43.936     7956.845     6635.321     1930.371        1.734        0.826      119.958       39.561        0.109      339.214       12.394      864.836
09/27/2013  12:28:00       20.409       56.247       71.415       51.837       76.170       36.836     2687.078     5801.910     1356.925        0.926        0.492       59.835       30.510        0.260      339.821       13.417      864.819
09/27/2013  12:29:00       46.852       -5.973       41.419       66.035       74.516       55.469     4360.592     5552.607     3076.856        0.847        0.650       47.231       48.319        1.047      339.737       13.275      864.805
09/27/2013  12:30:00       78.512       -2.052       55.229       75.994       81.417       49.068     5775.101     6628.744     2407.693        1.201        0.741       78.539       50.997        0.422      339.656       13.138      864.785
09/27/2013  12:31:00       98.755      -14.161       25.104       83.829       95.756       52.043     7027.381     9169.259     2708.463        1.474        0.945       99.765       50.281        0.254      339.685       13.187      864.772
09/27/2013  12:32:00       72.524     -100.690       15.969       68.561      124.951       68.180     4700.580    15612.798     4648.559        2.030        1.248      124.089       63.070        0.258      340.037       13.781      864.759
09/27/2013  12:33:00       51.811       32.747       90.123       86.229       93.356       66.305     7435.483     8715.307     4396.359        1.621        1.027       61.292       51.392        0.703      339.826       13.425      864.779
09/27/2013  12:34:00       20.103      -36.554       48.541       41.289      117.219       52.884     1704.796    13740.178     2796.761        1.117        0.912       41.718       63.533        2.319      339.225       12.413      864.791
09/27/2013  12:35:00       87.020      124.011       24.407       80.263       51.780       55.775     6442.078     2681.189     3110.891        1.789        0.612      151.496       42.718        0.080      338.890       11.848      864.813
09/27/2013  12:36:00       99.146      117.315       -3.347       64.488       73.043       45.562     4158.644     5335.227     2075.856        1.758        0.578      153.600       46.334        0.091      338.933       11.921      864.812
09/27/2013  12:37:00       31.623       36.743        9.200       38.088       42.704       31.089     1450.666     1823.634      966.524        0.334        0.212       48.478       26.225        0.293      339.323       12.577      864.791
09/27/2013  12:38:00      -36.342      157.191      -20.605       28.970       91.495       28.264      839.250     8371.319      798.866        1.823        0.500      161.337       40.909        0.064      339.108       12.213      864.776
09/27/2013  12:39:00      -52.301      154.043      -10.175       47.653       72.987       39.933     2270.849     5327.033     1594.679        1.788        0.460      162.680       38.660        0.056      339.328       12.586      864.771
09/27/2013  12:40:00      -79.673      104.890      -19.636       55.794       69.582       41.503     3112.941     4841.664     1722.501        1.370        0.484      131.718       37.031        0.079      339.300       12.538      864.763
09/27/2013  12:41:00       25.193       58.414       22.548       63.931       54.958       46.928     4087.159     3020.436     2202.262        0.693        0.465       63.615       41.452        0.425      339.495       12.866      864.770
09/27/2013  12:42:00      116.081       66.097       11.074       70.842       52.746       41.411     5018.612     2782.123     1714.836        1.374        0.476      133.580       15.644        0.014      339.372       12.659      864.787
09/27/2013  12:43:00       24.137       32.782        1.376       54.233       34.254       23.108     2941.247     1173.363      533.991        0.315        0.232       40.709       18.857        0.215      339.726       13.257      864.796
09/27/2013  12:44:00       58.929       99.196       11.793       62.493       61.597       38.439     3905.390     3794.173     1477.534        1.131        0.459      115.380       29.158        0.064      339.731       13.267      864.803
09/27/2013  12:45:00      -37.792      139.281       -5.432       39.279       90.516       33.953     1542.841     8193.212     1152.820        1.587        0.544      144.317       44.514        0.095      339.679       13.177      864.808
09/27/2013  12:46:00      -28.509       85.798        8.659       26.629       57.674       35.311      709.111     3326.277     1246.832        0.676        0.264       90.411       34.820        0.148      339.966       13.663      864.825
09/27/2013  12:47:00      -55.104       59.253       -8.954       41.093       38.269       30.871     1688.658     1464.552      953.046        0.537        0.205       80.916       27.200        0.113      339.663       13.151      864.838
09/27/2013  12:48:00       25.652       12.566       23.371       46.432       51.386       27.634     2155.924     2640.570      763.661        0.346        0.278       28.564       29.210        1.046      340.003       13.724      864.843
09/27/2013  12:49:00       71.705       42.106       15.522       81.859      116.020       56.141     6700.872    13460.698     3151.851        1.523        1.166       83.153       42.140        0.257      339.703       13.217      864.847
09/27/2013  12:50:00      122.765       43.049       36.142       54.813       64.762       46.212     3004.506     4194.087     2135.527        1.378        0.467      130.094       36.887        0.080      339.400       12.708      864.874
09/27/2013  12:51:00      123.785       67.570       79.107       95.896       62.844       67.915     9196.026     3949.419     4612.465        2.195        0.888      141.026       41.387        0.086      339.523       12.913      864.865
09/27/2013  12:52:00      171.067      149.702       15.231       64.639       48.361       57.659     4178.235     2338.767     3324.590        3.087        0.492      227.321       25.776        0.013      339.571       12.992      864.887
09/27/2013  12:53:00      101.424       73.487       23.950       66.555       50.545       47.264     4429.593     2554.827     2233.843        1.274        0.461      125.249       27.782        0.049      339.537       12.938      864.887
09/27/2013  12:54:00       69.701      108.774       -7.102       82.369       60.721       49.338     6784.660     3686.986     2434.275        1.482        0.645      129.190       41.724        0.104      339.707       13.224      864.865
09/27/2013  12:55:00       61.056       62.995        7.502       56.048       50.246       38.226     3141.422     2524.695     1461.243        0.744        0.356       87.728       18.027        0.042      339.941       13.620      864.836
09/27/2013  12:56:00       61.382       43.450        3.456       72.930       54.452       46.222     5318.826     2965.001     2136.476        0.804        0.521       75.204       33.399        0.197      340.224       14.097      864.814
09/27/2013  12:57:00       59.978      -31.884       26.164       76.836       90.005       63.831     5903.845     8100.931     4074.454        1.169        0.904       67.926       32.634        0.231      339.974       13.675      864.785
09/27/2013  12:58:00       60.018      -54.615       33.423       62.571       73.102       70.423     3915.129     5343.923     4959.435        1.096        0.711       81.148       58.930        0.527      339.855       13.476      864.783
09/27/2013  12:59:00       68.710     -110.626       -9.966       78.060       78.029       40.279     6093.433     6088.451     1622.377        1.543        0.690      130.228       36.675        0.079      339.518       12.905      864.801
09/27/2013  13:00:00       52.750      -36.161       19.265       64.016       64.697       44.021     4098.082     4185.746     1937.889        0.734        0.511       63.954       43.960        0.472      339.868       13.496      864.814
09/27/2013  13:01:00       50.879      -51.850        5.886       75.984       68.294       47.418     5773.567     4664.066     2248.443        0.900        0.634       72.643       45.572        0.394      339.742       13.284      864.788
09/27/2013  13:02:00       17.995       43.745       30.119       29.818       28.807       27.267      889.103      829.863      743.489        0.280        0.123       47.301       12.642        0.071      339.730       13.262      864.755
09/27/2013  13:03:00       -6.957       24.543       14.870       41.626       36.761       28.084     1732.743     1351.377      788.697        0.237        0.194       25.510       22.389        0.770      339.726       13.256      864.723
09/27/2013  13:04:00      -12.811       -8.774       10.126       56.639       30.346       34.252     3207.930      920.878     1173.176        0.282        0.265       15.528       26.796        2.978      340.053       13.810      864.696
09/27/2013  13:05:00       -5.089        4.232       23.956       45.487       49.791       29.708     2069.096     2479.151      882.571        0.302        0.272        6.619       22.163       11.213      340.223       14.095      864.665
09/27/2013  13:06:00        6.678     -103.663      -14.893       50.882       50.121       41.922     2588.945     2512.078     1757.421        0.893        0.343      103.877       15.088        0.021      340.031       13.772      864.645
09/27/2013  13:07:00       12.873      -43.345        1.897       30.040       54.024       41.420      902.372     2918.645     1715.650        0.379        0.277       45.216       42.596        0.887      340.686       14.879      864.634
09/27/2013  13:08:00        1.274        8.857       33.254       22.205       24.315       17.473      493.062      591.233      305.295        0.129        0.069        8.948       13.495        2.275      340.767       15.013      864.622
09/27/2013  13:09:00       -1.422       24.753       25.007       49.576       26.664       22.748     2457.782      710.948      517.472        0.246        0.184       24.793       12.679        0.262      340.292       14.211      864.595
09/27/2013  13:10:00     -115.213      -35.083       -6.585       40.371       90.624       23.655     1629.787     8212.626      559.568        1.247        0.520      120.436       17.406        0.021      340.017       13.746      864.572
09/27/2013  13:11:00     -124.285     -106.415      -10.959       67.268       63.558       26.532     4525.011     4039.608      703.947        1.808        0.463      163.618       27.836        0.029      339.419       12.738      864.551
09/27/2013  13:12:00     -111.810      -86.294        3.845      116.588       68.021       46.999    13592.736     4626.799     2208.941        2.019        1.021      141.238       59.450        0.177      339.962       13.655      864.519
09/27/2013  13:13:00      -99.487     -101.518       -0.271       82.063       44.995       40.655     6734.386     2024.534     1652.798        1.531        0.521      142.139       40.844        0.083      339.857       13.476      864.514
09/27/2013  13:14:00     -118.587      -69.210      -10.178       62.329       67.395       30.965     3884.915     4542.091      958.808        1.417        0.469      137.305        5.016        0.001      339.821       13.417      864.516
09/27/2013  13:15:00      -19.215     -121.543      -21.673       70.591       91.544       41.770     4983.052     8380.301     1744.696        1.536        0.755      123.053       45.326        0.136      339.987       13.696      864.513
09/27/2013  13:16:00      -38.323      -72.886      -11.146       50.717       51.607       29.374     2572.236     2663.324      862.836        0.650        0.305       82.347       27.560        0.112      339.589       13.026      864.516
09/27/2013  13:17:00       36.614        4.430       27.910       41.889       60.542       36.738     1754.663     3665.322     1349.697        0.445        0.338       36.881       34.626        0.881      339.982       13.689      864.488
09/27/2013  13:18:00       85.728     -105.226       -8.478      113.032      141.288       51.133    12776.182    19962.182     2614.577        2.692        1.768      135.727       67.327        0.246      340.194       14.046      864.452
09/27/2013  13:19:00      143.784     -142.132       -0.178       96.419      111.387       70.365     9296.700    12407.057     4951.303        3.376        1.333      202.176       59.423        0.086      340.229       14.102      864.396
09/27/2013  13:20:00      111.523     -154.439        1.775       90.012      125.950       65.053     8102.093    15863.455     4231.830        3.224        1.410      190.497       70.258        0.136      340.016       13.743      864.373
09/27/2013  13:21:00       80.830       50.154       73.863       87.467      106.850       82.251     7650.426    11416.860     6765.244        2.016        1.292       95.126       78.334        0.678      340.313       14.247      864.346
09/27/2013  13:22:00       85.931      118.451      111.374       86.060       69.254       52.091     7406.310     4796.174     2713.458        2.436        0.746      146.338       40.654        0.077      339.798       13.376      864.347
09/27/2013  13:23:00      132.587     -131.310        9.898       65.679       95.548       53.585     4313.697     9129.325     2871.319        2.561        0.816      186.606       62.228        0.111      339.937       13.611      864.333
09/27/2013  13:24:00       22.340       -8.120       15.105       54.782       63.172       53.799     3001.111     3990.708     2894.319        0.534        0.494       23.770       42.968        3.268      340.042       13.790      864.325
09/27/2013  13:25:00       48.678       -7.091       19.638       61.300       77.494       37.936     3757.657     6005.337     1439.116        0.700        0.560       49.192       17.945        0.133      340.203       14.062      864.299
09/27/2013  13:26:00       47.832       47.825       84.130       68.098      114.479       81.889     4637.317    13105.330     6705.776        1.805        1.222       67.640       85.819        1.610      340.316       14.250      864.288
09/27/2013  13:27:00      147.300     -208.627      -41.970       93.547      124.009       64.170     8751.036    15378.338     4117.781        4.761        1.412      255.387       54.129        0.045      340.088       13.865      864.263
09/27/2013  13:28:00       35.266       77.632      122.781       62.677       84.588       55.311     3928.417     7155.178     3059.317        1.824        0.707       85.267       57.260        0.451      340.409       14.408      864.276
09/27/2013  13:29:00       64.170       46.134       92.540       92.429      115.689       73.391     8543.041    13383.874     5386.246        2.106        1.366       79.033       89.563        1.284      339.935       13.608      864.277
09/27/2013  13:30:00       77.698      -65.738       34.299       48.963       97.186       45.012     2397.355     9445.121     2026.087        1.270        0.693      101.777       56.961        0.313      339.863       13.488      864.253
09/27/2013  13:31:00       36.852       -5.754       59.203       77.482      116.709       54.003     6003.404    13620.892     2916.329        1.371        1.127       37.298       62.353        2.795      340.148       13.966      864.198
09/27/2013  13:32:00      122.794       92.789       20.521      101.888       58.788       43.361    10381.244     3455.977     1880.149        1.991        0.786      153.910       28.266        0.034      339.865       13.489      864.192
09/27/2013  13:33:00       84.268       72.303       13.246       68.452       71.554       54.552     4685.622     5119.987     2975.894        1.264        0.639      111.035       41.433        0.139      340.137       13.949      864.161
09/27/2013  13:34:00       34.348       72.031       -4.357       56.095       50.575       39.672     3146.627     2557.871     1573.849        0.683        0.364       79.801       32.885        0.170      340.118       13.918      864.145
09/27/2013  13:35:00      100.780       41.562       38.928       88.547       87.937       45.224     7840.580     7732.853     2045.226        1.551        0.881      109.014       35.961        0.109      340.221       14.091      864.131
09/27/2013  13:36:00       20.049       25.840       46.648       52.975       53.476       48.354     2806.379     2859.693     2338.154        0.562        0.400       32.706       42.025        1.651      340.698       14.899      864.104
09/27/2013  13:37:00       48.789       -4.012       50.237       67.817      102.003       54.862     4599.144    10404.534     3009.887        1.146        0.901       48.954       61.714        1.589      340.471       14.514      864.061
09/27/2013  13:38:00       79.235      -31.100      104.648      106.013      181.135      104.245    11238.811    32809.874    10866.999        3.655        2.746       85.120      121.941        2.052      340.449       14.475      864.011
09/27/2013  13:39:00      185.884       64.475      123.185      124.953      150.532       84.660    15613.362    22659.812     7167.311        4.965        2.272      196.748      105.186        0.286      340.071       13.837      864.018
09/27/2013  13:40:00      127.132       35.477       80.478       83.217       90.545       69.367     6924.995     8198.341     4811.729        2.191        0.997      131.989       67.689        0.263      340.147       13.966      864.030
09/27/2013  13:41:00       73.256       -7.678       62.120       73.909      115.774       70.321     5462.603    13403.722     4945.080        1.654        1.191       73.657       38.219        0.269      340.434       14.452      864.003
09/27/2013  13:42:00      132.339     -170.888       -2.307      104.595      105.636       69.836    10940.013    11159.011     4877.099        3.684        1.349      216.139       63.007        0.085      340.238       14.119      863.984
09/27/2013  13:43:00      136.132     -137.126       14.509       65.668      132.673       69.811     4312.329    17602.067     4873.557        3.216        1.339      193.223       88.083        0.208      340.192       14.040      863.986
09/27/2013  13:44:00       78.897      -62.273       30.637       75.663      141.916       64.377     5724.832    20140.212     4144.356        2.052        1.500      100.512       81.446        0.657      340.219       14.086      863.982
09/27/2013  13:45:00       64.614       57.851       36.808       61.688       47.813       48.947     3805.380     2286.042     2395.775        0.868        0.424       86.728       38.502        0.197      340.077       13.849      863.975
09/27/2013  13:46:00       36.030       -2.560        1.759       36.186       42.307       22.120     1309.409     1789.862      489.279        0.245        0.179       36.121       20.154        0.311      340.234       14.113      863.971
09/27/2013  13:47:00        0.132      -58.082        0.388       25.181       39.014       23.822      634.066     1522.093      567.469        0.305        0.136       58.082       13.989        0.058      339.933       13.606      863.978
09/27/2013  13:48:00       -3.616       14.782       49.440       25.289       34.533       25.356      639.541     1192.552      642.913        0.257        0.124       15.218       14.077        0.856      340.860       15.172      863.985
09/27/2013  13:49:00      -17.575       61.310       17.264       35.210       72.371       28.144     1239.751     5237.626      792.076        0.582        0.363       63.780       33.168        0.270      340.780       15.037      863.977
09/27/2013  13:50:00       10.182       95.003       -2.343       37.664       61.644       36.468     1418.541     3800.011     1329.905        0.784        0.327       95.547       37.835        0.157      340.431       14.448      863.967
09/27/2013  13:51:00       87.552       44.494       39.331       74.385       42.743       49.226     5533.109     1827.001     2423.232        1.049        0.489       98.209       38.020        0.150      340.318       14.256      863.947
09/27/2013  13:52:00       85.641       74.526       -4.284       73.012       49.436       42.519     5330.728     2443.931     1807.906        1.124        0.479      113.527       31.368        0.076      340.232       14.111      863.934
09/27/2013  13:53:00      -12.804       77.897       -3.194       35.210       44.424       26.337     1239.725     1973.478      693.657        0.507        0.195       78.942       13.844        0.031      340.428       14.441      863.927
09/27/2013  13:54:00       29.479       32.220       23.774       41.247       48.664       27.486     1701.316     2368.185      755.466        0.365        0.241       43.671       27.826        0.406      340.614       14.757      863.917
09/27/2013  13:55:00       -3.576       87.505        3.685       28.499       62.835       28.493      812.176     3948.251      811.828        0.663        0.279       87.578       28.788        0.108      340.355       14.319      863.909
09/27/2013  13:56:00       11.992       56.635       10.351       27.252       44.955       32.586      742.672     2020.923     1061.846        0.364        0.191       57.891       27.249        0.222      340.476       14.523      863.898
09/27/2013  13:57:00        9.019       -1.636       18.045       15.258       15.785       19.985      232.812      249.159      399.399        0.065        0.044        9.166       11.181        1.488      340.791       15.056      863.889
09/27/2013  13:58:00      -22.232       -1.410       16.130       42.464       27.178       24.501     1803.213      738.659      600.297        0.195        0.157       22.277       24.838        1.243      340.965       15.351      863.889
09/27/2013  13:59:00      -58.457      -25.794        4.100       53.901       43.264       26.494     2905.332     1871.792      701.941        0.479        0.274       63.895       21.711        0.115      340.657       14.828      863.874
09/27/2013  14:00:00      -53.730      -16.149       -3.211       37.200       53.333       32.444     1383.820     2844.372     1052.594        0.422        0.264       56.104       19.065        0.115      340.270       14.176      863.854
09/27/2013  14:01:00       -6.604      -23.234       13.570       50.307       42.365       27.337     2530.841     1794.760      747.330        0.292        0.254       24.155       17.656        0.534      340.472       14.517      863.842
09/27/2013  14:02:00      -11.770      -24.764       16.322       75.095       43.962       32.488     5639.269     1932.627     1055.495        0.482        0.431       27.419       31.791        1.344      340.566       14.675      863.833
09/27/2013  14:03:00      -43.208      -25.338       -1.797       54.388       54.649       27.794     2958.014     2986.475      772.523        0.461        0.336       50.090       23.672        0.223      340.595       14.723      863.820
09/27/2013  14:04:00      -40.532       -1.870        5.934       49.354       31.289       28.103     2435.770      979.023      789.766        0.294        0.210       40.576       21.774        0.288      340.925       15.283      863.808
09/27/2013  14:05:00       18.380        7.414       39.081       42.728       57.222       28.534     1825.641     3274.366      814.177        0.392        0.296       19.819       29.462        2.210      340.953       15.330      863.802
09/27/2013  14:06:00       44.923      -76.606        3.608       43.799       50.694       36.703     1918.336     2569.926     1347.096        0.687        0.292       88.806       20.950        0.056      340.563       14.669      863.797
09/27/2013  14:07:00       50.834      -83.195       25.386       45.743       80.560       31.530     2092.453     6489.872      994.155        0.986        0.479       97.497       40.038        0.169      340.914       15.262      863.790
09/27/2013  14:08:00       80.677     -109.075       13.408       75.236      117.437       52.787     5660.410    13791.381     2786.442        2.041        1.112      135.669       63.262        0.217      340.708       14.913      863.780
09/27/2013  14:09:00       32.111       51.041       94.268       68.903      126.395       71.124     4747.563    15975.653     5058.586        1.915        1.289       60.302       80.428        1.779      340.674       14.857      863.756
09/27/2013  14:10:00       94.741       18.326       -2.916       43.807       58.444       32.561     1919.032     3415.664     1060.231        0.786        0.320       96.497       17.633        0.033      340.056       13.814      863.745
09/27/2013  14:11:00       90.985     -153.218      -27.907       88.158      134.777       43.068     7771.819    18164.926     1854.862        3.016        1.390      178.197       61.959        0.121      340.394       14.383      863.720
09/27/2013  14:12:00       87.739      -80.862       -7.180       77.130       69.569       61.798     5949.058     4839.862     3818.964        1.445        0.730      119.318       60.357        0.256      340.542       14.633      863.724
09/27/2013  14:13:00        6.478       -6.292       27.363       32.445       41.938       31.185     1052.704     1758.776      972.483        0.231        0.189        9.031       31.970       12.533      340.729       14.952      863.716
09/27/2013  14:14:00      -49.793      -17.213       13.153       50.481       40.452       39.100     2548.317     1636.385     1528.779        0.433        0.286       52.684       33.086        0.394      341.182       15.716      863.688
09/27/2013  14:15:00      -14.526       38.914       12.951       44.798       25.701       24.831     2006.852      660.539      616.569        0.259        0.164       41.537       13.629        0.108      340.713       14.924      863.686
09/27/2013  14:16:00       24.028       28.167       13.618       33.434       28.035       35.052     1117.845      785.972     1228.635        0.234        0.157       37.023       30.303        0.670      340.849       15.154      863.669
09/27/2013  14:17:00      -21.169        8.402       19.018       34.069       19.171       24.024     1160.707      367.518      577.171        0.149        0.105       22.775       15.196        0.445      341.060       15.511      863.670
09/27/2013  14:18:00       23.968       56.807      -11.889       22.822       26.508       28.733      520.838      702.690      825.591        0.300        0.102       61.656       19.855        0.104      340.809       15.086      863.660
09/27/2013  14:19:00      -23.164       54.401        9.451       44.479       54.611       28.877     1978.345     2982.367      833.863        0.469        0.290       59.128       28.416        0.231      340.953       15.330      863.655
09/27/2013  14:20:00      -53.305       60.142       -2.262       50.782       63.748       30.665     2578.856     4063.851      940.358        0.702        0.379       80.365       24.449        0.093      340.910       15.256      863.652
09/27/2013  14:21:00      -22.986      141.004      -11.084       23.460       34.054       24.753      550.361     1159.675      612.698        1.143        0.116      142.865       17.336        0.015      340.453       14.484      863.663
09/27/2013  14:22:00      -24.106      126.928       -8.946       22.451       37.050       29.705      504.069     1372.723      882.358        0.976        0.138      129.197       23.125        0.032      340.563       14.669      863.662
09/27/2013  14:23:00       24.235       54.493       14.101       32.425       47.105       30.245     1051.374     2218.908      914.750        0.397        0.209       59.639       30.679        0.265      340.914       15.264      863.651
09/27/2013  14:24:00       48.669       91.389        9.742       67.249       70.307       46.765     4522.412     4943.060     2186.938        1.123        0.583      103.540       39.168        0.143      340.820       15.104      863.645
09/27/2013  14:25:00       76.092       71.929       49.942       71.631       50.799       45.531     5130.962     2580.532     2073.059        1.162        0.489      104.708       26.639        0.065      341.082       15.547      863.633
09/27/2013  14:26:00       65.780       47.561       64.510       73.184       86.781       70.370     5355.936     7530.888     4951.901        1.429        0.892       81.173       65.261        0.646      340.619       14.764      863.617
09/27/2013  14:27:00       60.377      112.648      117.732       68.744       70.418       55.471     4725.703     4958.720     3077.067        2.148        0.638      127.808       52.641        0.170      340.185       14.030      863.616
09/27/2013  14:28:00       36.951       27.609       73.961       66.627       73.999       56.271     4439.178     5475.783     3166.414        1.034        0.654       46.126       51.761        1.259      340.492       14.549      863.622
09/27/2013  14:29:00       86.805       17.807       14.136       56.186       54.664       45.767     3156.827     2988.158     2094.578        0.814        0.412       88.613       20.554        0.054      340.119       13.920      863.635
09/27/2013  14:30:00       74.185       58.787       26.978       35.039       33.760       28.549     1227.746     1139.728      815.051        0.643        0.159       94.653       22.725        0.058      340.275       14.183      863.627
09/27/2013  14:31:00       49.719       26.919       15.218       28.998       20.703       21.360      840.903      428.605      456.254        0.258        0.086       56.539       19.775        0.122      340.543       14.637      863.633
09/27/2013  14:32:00       -4.601      -36.367        7.472       24.077       50.517       29.115      579.687     2551.947      847.679        0.269        0.199       36.657       20.833        0.323      340.853       15.161      863.628
09/27/2013  14:33:00      -10.209      -12.554       30.752       38.119       71.376       37.820     1453.051     5094.580     1430.364        0.459        0.399       16.181       27.578        2.905      341.024       15.450      863.618
09/27/2013  14:34:00      -50.210       -7.617       -3.718       61.672       49.208       26.749     3803.396     2421.395      715.531        0.477        0.347       50.785       27.064        0.284      340.854       15.162      863.622
09/27/2013  14:35:00     -103.614      -23.521        4.169       47.713       47.460       34.165     2276.566     2252.415     1167.264        0.850        0.285      106.250       23.662        0.050      340.771       15.024      863.613
09/27/2013  14:36:00      -46.351       -2.747        3.595       48.462       29.725       17.770     2348.559      883.567      315.768        0.286        0.177       46.432       12.849        0.077      340.697       14.897      863.604
09/27/2013  14:37:00       -1.260      -89.980       -8.012       31.925       35.338       30.353     1019.218     1248.776      921.323        0.568        0.159       89.989       14.137        0.025      340.492       14.550      863.600
09/27/2013  14:38:00       66.805       39.289       15.727       56.794       49.121       37.506     3225.514     2412.849     1406.699        0.665        0.352       77.502       16.875        0.047      340.613       14.755      863.602
09/27/2013  14:39:00       21.701       -3.227       10.439       32.360       46.804       21.460     1047.197     2190.589      460.512        0.214        0.185       21.940       15.635        0.508      340.777       15.033      863.590
09/27/2013  14:40:00        7.851       39.669        4.195       37.010       34.636       22.838     1369.704     1199.673      521.578        0.237        0.155       40.438       17.828        0.194      340.895       15.232      863.571
09/27/2013  14:41:00      -24.982       53.828      -19.861       24.228       49.819       21.235      587.010     2481.960      450.923        0.372        0.176       59.343        9.440        0.025      340.651       14.818      863.543
09/27/2013  14:42:00      -40.133       82.193      -17.607       44.770       71.075       36.890     2004.330     5051.621     1360.890        0.854        0.421       91.468       38.099        0.173      340.857       15.167      863.507
09/27/2013  14:43:00      -44.090      177.506      -30.947       43.650       80.346       31.728     1905.328     6455.510     1006.686        2.189        0.468      182.900       34.863        0.036      340.603       14.735      863.488
09/27/2013  14:44:00     -120.409      149.130      -38.273       65.115       77.855       33.525     4239.964     6061.425     1123.914        2.481        0.571      191.671       21.176        0.012      340.513       14.582      863.477
09/27/2013  14:45:00     -164.612      -39.965      -13.254       97.604       82.595       49.611     9526.568     6821.868     2461.247        2.384        0.940      169.394       17.254        0.010      341.078       15.539      863.437
09/27/2013  14:46:00     -215.890      -99.454      -19.920       73.163       75.984       38.169     5352.753     5773.587     1456.875        3.474        0.629      237.697       28.720        0.015      340.555       14.651      863.446
09/27/2013  14:47:00     -149.150      -44.147       -5.185       62.185       65.934       39.406     3866.971     4347.346     1552.805        1.699        0.488      155.546       24.228        0.024      341.163       15.684      863.453
09/27/2013  14:48:00     -195.077      -65.604      -18.800       54.202       45.363       34.161     2937.806     2057.823     1166.998        2.444        0.308      205.813       19.011        0.009      340.725       14.942      863.442
09/27/2013  14:49:00      -83.771      -18.100       -7.558       48.889       43.063       25.953     2390.130     1854.430      673.552        0.616        0.246       85.704       23.290        0.074      340.816       15.098      863.436
09/27/2013  14:50:00      -60.586      -15.583        1.190       40.498       30.605       23.358     1640.072      936.692      545.618        0.352        0.156       62.558       18.643        0.089      340.911       15.258      863.441
09/27/2013  14:51:00      -20.727       33.867       25.323       66.986       29.260       34.003     4487.160      856.123     1156.218        0.436        0.325       39.706       29.142        0.539      341.080       15.545      863.435
09/27/2013  14:52:00       40.864       56.465       13.397       31.676       29.214       35.945     1003.374      853.481     1292.032        0.409        0.157       69.700       20.170        0.084      340.955       15.334      863.429
09/27/2013  14:53:00       50.033       17.585       25.667       30.526       44.374       33.676      931.847     1969.028     1134.051        0.375        0.202       53.033       23.494        0.196      341.227       15.793      863.425
09/27/2013  14:54:00       11.139        5.867       40.323       47.765       66.858       65.327     2281.468     4469.986     4267.563        0.640        0.551       12.590       62.423       24.585      341.005       15.418      863.432
09/27/2013  14:55:00       47.627       91.685       79.503       69.070       50.424       52.569     4770.706     2542.536     2763.487        1.353        0.504      103.317       49.992        0.234      340.700       14.901      863.436
09/27/2013  14:56:00       40.825       45.986       18.779       34.696       24.935       31.414     1203.781      621.745      986.814        0.347        0.141       61.493       24.615        0.160      340.993       15.396      863.449
09/27/2013  14:57:00       20.564       78.882        4.138       41.659       56.289       36.427     1735.460     3168.476     1326.905        0.645        0.312       81.519       35.413        0.189      341.054       15.502      863.465
09/27/2013  14:58:00        6.486       74.758       -0.018       30.645       37.387       29.642      939.107     1397.783      878.652        0.442        0.161       75.038       24.059        0.103      340.950       15.323      863.472
09/27/2013  14:59:00        7.954       36.668        2.122       22.244       29.531       19.173      494.798      872.108      367.596        0.157        0.087       37.521       15.112        0.162      341.106       15.590      863.449
09/27/2013  15:00:00       -0.103      -14.610        6.993       11.800       22.248       19.352      139.238      494.967      374.496        0.064        0.050       14.611        5.459        0.140      341.640       16.494      863.424
09/27/2013  15:01:00       -2.442      -56.580       19.080       24.704       30.599       17.975      610.266      936.329      323.085        0.272        0.093       56.633        9.833        0.030      341.036       15.471      863.389
09/27/2013  15:02:00       45.398        9.050       -3.782       27.640       38.752       22.102      763.947     1501.691      488.478        0.246        0.138       46.291       20.264        0.192      340.861       15.175      863.346
09/27/2013  15:03:00       15.408      -17.235       21.959       38.305       32.408       22.304     1467.291     1050.271      497.488        0.202        0.151       23.118       12.160        0.277      341.388       16.066      863.327
09/27/2013  15:04:00      114.469       65.244       36.494       42.218       39.010       37.779     1782.371     1521.769     1427.274        1.171        0.237      131.757       24.247        0.034      340.993       15.397      863.306
09/27/2013  15:05:00       48.818       -5.301       29.794       56.585       81.270       45.796     3201.833     6604.859     2097.303        0.760        0.595       49.105       52.179        1.129      341.311       15.936      863.278
09/27/2013  15:06:00       17.179       22.055       -4.001       46.949       37.984       28.935     2204.223     1442.780      837.239        0.264        0.224       27.956       15.828        0.321      341.040       15.477      863.257
09/27/2013  15:07:00       42.138      -25.095       17.884       44.660       37.189       30.827     1994.504     1382.985      950.281        0.353        0.216       49.045       31.723        0.418      341.383       16.057      863.245
09/27/2013  15:08:00      114.672       20.610       62.706       89.538       96.896       64.332     8016.989     9388.755     4138.608        1.952        1.077      116.510       69.957        0.361      340.971       15.360      863.212
09/27/2013  15:09:00       74.570      -46.392       25.099       72.150       64.580       38.045     5205.642     4170.640     1447.398        0.958        0.541       87.823       34.857        0.158      340.974       15.365      863.211
09/27/2013  15:10:00       26.555      -65.459       11.428       37.750       65.838       43.982     1425.069     4334.596     1934.450        0.641        0.385       70.640       40.182        0.324      341.354       16.009      863.220
09/27/2013  15:11:00       22.646      -68.093        5.910       74.589       93.923       48.127     5563.470     8821.587     2316.246        1.094        0.835       71.760       55.249        0.593      341.515       16.280      863.234
09/27/2013  15:12:00       60.970      -81.669       17.246       66.294       89.004       47.846     4394.921     7921.764     2289.266        1.264        0.730      101.917       60.109        0.348      341.053       15.498      863.242
09/27/2013  15:13:00       46.873      -41.120       31.684       52.320       72.851       43.260     2737.392     5307.226     1871.397        0.740        0.496       62.354       46.491        0.556      341.163       15.686      863.250
09/27/2013  15:14:00       51.707       43.455       20.371       31.430       30.575       31.190      987.873      934.810      972.820        0.394        0.145       67.542        5.464        0.007      341.008       15.423      863.246
09/27/2013  15:15:00       32.525       97.577        7.814       70.429       68.095       31.511     4960.265     4636.911      992.943        1.061        0.530      102.855       36.400        0.125      341.025       15.451      863.223
09/27/2013  15:16:00      -35.029      102.907      -14.301       25.117       53.823       30.706      630.859     2896.928      942.861        0.825        0.224      108.706       28.879        0.071      340.984       15.382      863.214
09/27/2013  15:17:00      -49.906       71.934      -22.329       50.443       43.913       24.037     2544.495     1928.327      577.761        0.661        0.253       87.551       29.368        0.113      341.097       15.573      863.211
09/27/2013  15:18:00       41.940      122.882        0.060       59.890       80.414       45.458     3586.760     6466.340     2066.415        1.449        0.606      129.842       38.535        0.088      341.117       15.606      863.199
09/27/2013  15:19:00      -44.722      154.576       -6.776       39.009       58.570       31.568     1521.713     3430.411      996.548        1.594        0.297      160.916       29.422        0.033      341.078       15.540      863.179
09/27/2013  15:20:00      -83.082       74.456      -18.149       26.473       42.194       29.800      700.810     1780.355      888.020        0.807        0.168      111.563       22.441        0.040      341.068       15.526      863.152
09/27/2013  15:21:00      -36.721       31.964       -2.335       40.783       27.556       28.208     1663.220      759.317      795.691        0.280        0.161       48.684       28.883        0.352      341.368       16.033      863.136
09/27/2013  15:22:00       20.121       78.727        7.930       44.769       53.647       32.630     2004.290     2877.985     1064.699        0.631        0.297       81.258       27.536        0.115      341.266       15.860      863.137
09/27/2013  15:23:00       16.888       77.777       -2.508       78.731       76.881       41.228     6198.499     5910.720     1699.775        1.007        0.690       79.589       36.817        0.214      341.444       16.161      863.143
09/27/2013  15:24:00      152.430       94.371       15.340       66.675       60.236       50.893     4445.577     3628.433     2590.081        2.152        0.533      179.279       28.940        0.026      341.083       15.548      863.128
09/27/2013  15:25:00       73.324       40.388       10.995       80.949       92.175       32.150     6552.787     8496.287     1033.648        1.160        0.804       83.711       15.426        0.034      341.131       15.631      863.126
09/27/2013  15:26:00      -13.310      -61.554       -1.354       35.913       28.737       32.227     1289.739      825.801     1038.608        0.356        0.158       62.977       28.098        0.199      340.950       15.325      863.126
09/27/2013  15:27:00       31.488        7.880       13.950       25.778       26.485       27.023      664.503      701.431      730.253        0.167        0.105       32.458       18.038        0.309      341.274       15.873      863.128
09/27/2013  15:28:00       86.088       66.505       23.587       53.974       41.884       46.875     2913.240     1754.310     2197.268        0.963        0.343      108.784       21.805        0.040      341.254       15.840      863.122
09/27/2013  15:29:00       87.744       31.228       34.817       86.338       66.284       44.483     7454.243     4393.518     1978.736        1.185        0.691       93.135       38.289        0.169      341.448       16.167      863.120
09/27/2013  15:30:00       80.519        7.811       27.098       89.385       54.584       45.965     7989.761     2979.374     2112.787        1.018        0.654       80.897       12.026        0.022      341.511       16.275      863.114
09/27/2013  15:31:00       37.125      -16.348       56.510       52.743       84.514       41.153     2781.842     7142.542     1693.610        0.823        0.581       40.565       27.797        0.470      341.528       16.303      863.106
09/27/2013  15:32:00       51.081       81.637       71.457       69.548       48.822       46.848     4836.983     2383.601     2194.742        1.190        0.471       96.301       35.562        0.136      341.152       15.666      863.118
09/27/2013  15:33:00       83.332      -66.498       17.569       65.205       65.481       41.407     4251.734     4287.780     1714.525        1.096        0.513      106.613       36.722        0.119      340.806       15.080      863.127
09/27/2013  15:34:00       35.534      -63.476        0.763       52.726       94.062       42.329     2779.992     8847.614     1791.732        0.935        0.671       72.745       31.330        0.185      341.126       15.622      863.133
09/27/2013  15:35:00       27.759     -113.888       -4.566       44.370       51.453       34.444     1968.676     2647.425     1186.396        0.978        0.290      117.222       24.107        0.042      341.201       15.749      863.139
09/27/2013  15:36:00       54.344     -118.002        0.873       30.475       41.730       24.473      928.753     1741.404      598.928        1.007        0.163      129.914       18.179        0.020      341.251       15.832      863.133
09/27/2013  15:37:00       -0.307      -40.717       -3.569       24.238       61.756       22.939      587.501     3813.745      526.180        0.330        0.246       40.719       22.869        0.315      341.681       16.563      863.130
09/27/2013  15:38:00      -26.485       15.127        9.286       39.835       37.464       23.325     1586.817     1403.587      544.070        0.227        0.177       30.500       27.120        0.791      341.873       16.889      863.140
09/27/2013  15:39:00       43.368       33.793       24.282       44.917       29.402       25.015     2017.570      864.463      625.759        0.356        0.175       54.979       11.642        0.045      341.653       16.514      863.156
09/27/2013  15:40:00       25.544       11.163       12.364       44.274       38.617       20.859     1960.197     1491.296      435.083        0.241        0.194       27.876       10.556        0.143      341.755       16.690      863.161
09/27/2013  15:41:00       34.788       83.091       -4.903       60.034       49.492       27.233     3604.060     2449.410      741.621        0.747        0.340       90.079       23.738        0.069      341.099       15.576      863.172
09/27/2013  15:42:00        9.564      -29.373       13.107       35.642       55.329       32.217     1270.361     3061.247     1037.957        0.325        0.268       30.890       28.913        0.876      341.380       16.052      863.181
09/27/2013  15:43:00       21.875      -50.967        4.642       39.466       45.474       25.686     1557.596     2067.888      659.769        0.369        0.214       55.463       22.963        0.171      340.997       15.404      863.170
09/27/2013  15:44:00       52.141      -12.601        4.359       59.590       55.003       29.685     3550.930     3025.333      881.177        0.518        0.373       53.642       32.881        0.376      341.282       15.887      863.173
09/27/2013  15:45:00       46.880       13.150       37.392       55.245       48.810       35.466     3052.053     2382.402     1257.841        0.523        0.335       48.689       26.096        0.287      341.365       16.027      863.162
09/27/2013  15:46:00       30.543       49.808       63.615       49.005       54.987       40.980     2401.531     3023.587     1679.372        0.728        0.355       58.427       38.163        0.427      341.113       15.600      863.147
09/27/2013  15:47:00       20.077       34.101       56.892       41.000       72.759       36.813     1681.033     5293.808     1355.212        0.656        0.417       39.572       34.333        0.753      341.114       15.602      863.145
09/27/2013  15:48:00       19.135        6.711       34.332       39.269       33.089       24.293     1542.080     1094.902      590.129        0.241        0.161       20.278       10.963        0.292      341.177       15.710      863.144
09/27/2013  15:49:00       11.854        8.503       -9.505       47.931       24.431       25.490     2297.364      596.874      649.729        0.192        0.177       14.588       25.711        3.106      341.178       15.711      863.144
09/27/2013  15:50:00       25.434       13.032        2.298       32.558       43.032       20.453     1060.035     1851.795      418.318        0.208        0.167       28.579       20.011        0.490      341.242       15.819      863.133
09/27/2013  15:51:00       25.628       37.055        0.166       50.157       49.128       29.209     2515.710     2413.563      853.159        0.390        0.289       45.054       19.078        0.179      341.473       16.210      863.121
09/27/2013  15:52:00      116.261       92.926       41.242       85.870       67.988       55.472     7373.731     4622.389     3077.162        1.946        0.754      148.835       33.092        0.049      341.518       16.284      863.102
09/27/2013  15:53:00      123.408       85.487       24.616       75.056       47.448       40.369     5633.429     2251.348     1629.633        1.633        0.476      150.125       18.479        0.015      341.367       16.029      863.101
09/27/2013  15:54:00      125.374       91.090       21.890       40.435       28.059       32.013     1635.013      787.288     1024.809        1.397        0.172      154.971       21.705        0.020      341.111       15.595      863.102
09/27/2013  15:55:00       90.510       78.492       15.210       58.930       31.293       34.020     3472.704      979.222     1157.347        1.010        0.280      119.804       32.824        0.075      341.194       15.737      863.098
09/27/2013  15:56:00       36.700       21.896       25.557       40.975       32.234       30.867     1678.955     1039.033      952.754        0.307        0.184       42.735       16.365        0.147      341.499       16.253      863.088
09/27/2013  15:57:00       70.841       76.301       32.301       52.023       38.018       35.011     2706.414     1445.340     1225.742        0.863        0.269      104.116       31.730        0.093      341.335       15.977      863.088
09/27/2013  15:58:00       41.391       22.226        8.672       38.050       21.273       29.565     1447.780      452.536      874.081        0.253        0.139       46.981       13.061        0.077      341.116       15.608      863.085
09/27/2013  15:59:00       61.343       73.920       15.864       38.536       31.402       36.686     1485.013      986.102     1345.874        0.665        0.191       96.058       23.180        0.058      341.042       15.480      863.087
09/27/2013  16:00:00        2.410       48.457      -16.824       25.340       33.377       14.412      642.110     1114.006      207.705        0.230        0.098       48.516        9.597        0.039      341.512       16.275      863.095
09/27/2013  16:01:00       48.937      -33.713       -0.055       24.610       27.652       23.363      605.661      764.622      545.840        0.272        0.096       59.426        9.331        0.025      341.078       15.541      863.087
09/27/2013  16:02:00       57.841       20.273       -7.050       24.438       28.281       22.569      597.232      799.807      509.357        0.286        0.095       61.291       11.929        0.038      341.029       15.459      863.067
09/27/2013  16:03:00       27.136       14.985      -11.133       25.225       28.637       26.210      636.293      820.084      686.970        0.161        0.107       30.998       16.307        0.277      341.370       16.035      863.064
09/27/2013  16:04:00        8.565      -28.587       -2.481       20.789       36.483       22.643      432.172     1331.008      512.702        0.159        0.114       29.842       18.869        0.400      341.235       15.806      863.058
09/27/2013  16:05:00        5.614       25.074       -0.602       37.921       30.902       32.850     1437.989      954.953     1079.121        0.207        0.174       25.695       16.556        0.415      341.442       16.158      863.053
09/27/2013  16:06:00       72.133       54.586       32.663       49.756       30.903       29.336     2475.647      954.980      860.573        0.677        0.215       90.459       17.996        0.040      341.598       16.422      863.044
09/27/2013  16:07:00       90.464       61.844       20.013       53.289       33.546       29.313     2839.676     1125.326      859.268        0.862        0.241      109.583       18.500        0.029      341.702       16.597      863.049
09/27/2013  16:08:00       76.872       66.372       -0.712       70.306       53.993       31.309     4942.998     2915.199      980.262        0.958        0.442      101.561       28.903        0.081      341.802       16.767      863.060
09/27/2013  16:09:00      169.701       75.567        0.551      100.731       64.287       52.444    10146.653     4132.843     2750.356        2.577        0.851      185.765       12.484        0.005      341.332       15.970      863.072
09/27/2013  16:10:00       64.557       64.306       10.637       82.895       43.620       38.129     6871.612     1902.676     1453.829        0.932        0.511       91.120       33.000        0.131      341.332       15.971      863.077
09/27/2013  16:11:00       76.576      100.069       11.038       86.524       77.609       64.991     7486.457     6023.151     4223.855        1.686        0.887      126.006       36.341        0.083      341.568       16.370      863.083
09/27/2013  16:12:00      178.158      114.054       14.242       80.030       58.813       57.328     6404.730     3458.929     3286.507        2.905        0.658      211.538       28.792        0.019      341.604       16.430      863.087
09/27/2013  16:13:00      134.380      108.939       12.255       65.123       58.446       46.393     4240.968     3415.990     2152.287        1.994        0.490      172.991       32.840        0.036      341.558       16.353      863.093
09/27/2013  16:14:00      182.959      121.843       25.854       86.640       64.088       57.849     7506.565     4107.240     3346.520        3.197        0.748      219.818       24.384        0.012      341.357       16.011      863.082
09/27/2013  16:15:00       91.920      111.809        9.394      104.065       77.617       44.007    10829.472     6024.465     1936.581        1.991        0.940      144.743       40.931        0.080      341.616       16.449      863.081
09/27/2013  16:16:00       15.608       60.503        3.402       52.497       64.810       37.111     2755.920     4200.296     1377.203        0.612        0.417       62.484       35.410        0.321      341.609       16.441      863.099
09/27/2013  16:17:00       70.413       61.463        3.995       59.893       41.734       29.951     3587.177     1741.721      897.052        0.749        0.311       93.465       24.673        0.070      341.421       16.123      863.100
09/27/2013  16:18:00       61.281       58.628      -28.411       36.450       50.125       22.036     1328.593     2512.495      485.573        0.616        0.216       84.810       13.021        0.024      341.255       15.841      863.109
09/27/2013  16:19:00      -22.105       62.025       -8.302       28.553       51.291       24.520      815.277     2630.815      601.247        0.423        0.202       65.846       23.584        0.128      341.431       16.139      863.108
09/27/2013  16:20:00       31.531       92.965      -10.577       40.249       47.213       30.301     1619.967     2229.083      918.155        0.726        0.238       98.166       23.808        0.059      341.415       16.111      863.099
09/27/2013  16:21:00       29.677      186.950      -36.464       53.129       55.925       25.609     2822.719     3127.654      655.811        2.188        0.330      189.290       22.133        0.014      341.345       15.991      863.088
09/27/2013  16:22:00      -33.262       -9.277      -21.168       45.945       55.717       25.944     2110.923     3104.409      673.084        0.376        0.294       34.531       32.052        0.862      341.426       16.131      863.085
09/27/2013  16:23:00        8.410       40.235        9.415       43.032       29.519       31.218     1851.761      871.371      974.553        0.274        0.185       41.105       16.788        0.167      341.528       16.304      863.075
09/27/2013  16:24:00       20.381       82.371       -0.812       60.589       60.226       42.866     3670.967     3627.215     1837.530        0.817        0.457       84.855       35.985        0.180      341.648       16.506      863.060
09/27/2013  16:25:00       35.384       85.239       22.925       55.097       50.936       49.703     3035.705     2594.504     2470.399        0.857        0.405       92.291       40.670        0.194      341.494       16.245      863.069
09/27/2013  16:26:00      -36.411       96.669      -15.418       17.499       23.200       14.335      306.215      538.246      205.482        0.598        0.052      103.299        6.627        0.004      341.525       16.297      863.067
09/27/2013  16:27:00      -62.802       36.808        0.820       43.773       60.786       30.957     1916.067     3694.973      958.348        0.593        0.328       72.793       29.583        0.165      341.814       16.789      863.060
09/27/2013  16:28:00      -94.530      -17.425        3.072       43.625       49.329       29.404     1903.123     2433.365      864.573        0.722        0.260       96.122       12.596        0.017      342.204       17.450      863.064
09/27/2013  16:29:00     -144.126      -17.820       -8.754       40.553       41.872       25.143     1644.510     1753.232      632.151        1.260        0.201      145.224       24.001        0.027      341.972       17.055      863.068
09/27/2013  16:30:00     -101.834      -25.817       -5.105       46.796       35.993       25.350     2189.874     1295.463      642.622        0.759        0.206      105.055       25.822        0.060      342.049       17.187      863.076
09/27/2013  16:31:00      -40.897       -2.869       10.893       30.898       31.256       20.240      954.712      976.966      409.665        0.207        0.117       40.998       15.790        0.148      341.772       16.718      863.074
09/27/2013  16:32:00       -6.757       23.965       36.047       22.141       21.275       26.662      490.214      452.623      710.871        0.179        0.083       24.899       22.142        0.791      341.391       16.070      863.072
09/27/2013  16:33:00       26.330       18.849        8.462       30.088       39.474       21.130      905.269     1558.205      446.491        0.201        0.145       32.382       15.828        0.239      341.530       16.306      863.071
09/27/2013  16:34:00       73.767      -15.285       44.035       80.511       78.411       50.325     6482.071     6148.269     2532.623        1.139        0.758       75.334       62.761        0.694      341.264       15.854      863.055
09/27/2013  16:35:00       72.083       76.487       38.162       51.930       52.284       58.747     2696.731     2733.585     3451.197        1.069        0.444      105.101       46.266        0.194      341.158       15.677      863.054
09/27/2013  16:36:00       14.243        0.723       18.418       29.217       40.038       36.418      853.661     1603.057     1326.283        0.216        0.189       14.262       25.865        3.289      341.507       16.267      863.044
09/27/2013  16:37:00      123.527       72.277       17.237       74.576       70.020       45.177     5561.508     4902.736     2040.983        1.664        0.625      143.118       28.332        0.039      341.541       16.324      863.058
09/27/2013  16:38:00       57.519      -88.012      -15.827       30.154       24.086       27.116      909.255      580.122      735.279        0.676        0.111      105.140       15.829        0.023      341.436       16.147      863.088
09/27/2013  16:39:00       58.664      -29.789       23.736       33.080       33.113       21.095     1094.273     1096.494      444.997        0.376        0.132       65.794       18.594        0.080      341.446       16.164      863.081
09/27/2013  16:40:00       23.875      -66.521        1.378       26.633       79.018       41.990      709.302     6243.821     1763.169        0.685        0.436       70.676       44.122        0.390      341.382       16.055      863.072
09/27/2013  16:41:00       16.918       -7.989       19.732       32.764       32.813       37.534     1073.449     1076.673     1408.829        0.215        0.178       18.709       21.855        1.365      341.226       15.792      863.069
09/27/2013  16:42:00       17.320      -10.873        2.831       33.839       25.582       29.701     1145.095      654.452      882.173        0.155        0.134       20.450       23.813        1.356      341.188       15.727      863.056
09/27/2013  16:43:00       18.273       36.078       12.331       20.166       17.121       18.839      406.680      293.141      354.901        0.142        0.053       40.441       13.304        0.108      341.110       15.595      863.044
09/27/2013  16:44:00       44.258      -12.169       21.360       37.806       25.668       20.752     1429.284      658.850      430.643        0.254        0.126       45.901       10.508        0.052      340.932       15.295      863.039
09/27/2013  16:45:00       38.168      -28.390       19.480       43.319       38.684       30.489     1876.524     1496.470      929.583        0.347        0.215       47.569       26.659        0.314      341.065       15.520      863.044
09/27/2013  16:46:00       88.095      -49.607       22.642       76.015       60.371       44.545     5778.330     3644.657     1984.272        1.107        0.570      101.102       36.853        0.133      341.505       16.265      863.035
09/27/2013  16:47:00       13.025        4.307        6.576       43.645       27.799       17.843     1904.922      772.796      318.379        0.161        0.150       13.719        8.119        0.350      341.527       16.301      863.035
09/27/2013  16:48:00       -7.322       61.267      -15.792       20.033       19.107       14.554      401.306      365.082      211.831        0.252        0.049       61.703        5.725        0.009      341.628       16.471      863.002
09/27/2013  16:49:00       -3.303       38.322        2.371       22.292       29.378       17.886      496.937      863.045      319.902        0.158        0.084       38.464       17.655        0.211      341.704       16.601      862.983
09/27/2013  16:50:00       13.068      -23.876       10.463       50.110       33.911       23.785     2511.041     1149.936      565.734        0.254        0.211       27.218       15.613        0.329      341.443       16.161      862.977
09/27/2013  16:51:00       24.671      -90.204        8.221       53.896       86.010       47.628     2904.732     7397.724     2268.432        1.069        0.629       93.517       40.254        0.185      341.833       16.819      862.968
09/27/2013  16:52:00      137.183     -217.077      -27.130       71.995       61.453       37.831     5183.233     3776.524     1431.183        3.853        0.520      256.791       37.230        0.021      341.654       16.513      862.961
09/27/2013  16:53:00       49.356      -39.281       40.556       53.617       74.953       56.267     2874.822     5617.941     3166.029        0.864        0.583       63.079       58.164        0.850      341.665       16.536      862.962
09/27/2013  16:54:00       66.949     -129.001      -18.481       34.343       33.272       27.912     1179.445     1107.055      779.078        1.226        0.153      145.339       21.919        0.023      341.614       16.449      862.962
09/27/2013  16:55:00       58.818     -104.595       -9.168       51.762       96.059       38.899     2679.272     9227.330     1513.132        1.395        0.671      119.998       36.079        0.090      341.670       16.543      862.944
09/27/2013  16:56:00      -41.175      -40.456        3.173       51.240       55.689       28.546     2625.521     3101.258      814.892        0.494        0.327       57.724       32.162        0.310      341.867       16.876      862.940
09/27/2013  16:57:00     -109.480      -41.833       -4.644       69.210       48.877       30.298     4790.028     2388.990      917.983        1.093        0.405      117.201       31.358        0.072      341.935       16.993      862.931
09/27/2013  16:58:00     -100.724      -35.088        6.296       35.137       31.000       22.456     1234.633      960.988      504.294        0.706        0.135      106.661       20.577        0.037      341.686       16.571      862.918
09/27/2013  16:59:00        2.219      -10.080        5.693       20.294       26.381       18.443      411.850      695.948      340.135        0.079        0.072       10.321       12.146        1.385      341.474       16.212      862.907
09/27/2013  17:00:00       12.955      -19.997       10.792       23.243       33.058       25.514      540.244     1092.841      650.939        0.148        0.114       23.827       13.483        0.320      341.266       15.861      862.892
09/27/2013  17:01:00       51.974      -25.587       32.784       57.171       75.073       48.459     3268.487     5635.977     2348.245        0.784        0.563       57.931       44.025        0.578      341.507       16.267      862.875
09/27/2013  17:02:00       45.246      -22.277       42.657       50.724       95.762       52.159     2572.957     9170.280     2720.585        0.941        0.723       50.433       54.276        1.158      341.180       15.714      862.870
09/27/2013  17:03:00       48.132      -53.611       -9.701       28.077       22.428       22.070      788.334      503.016      487.067        0.353        0.089       72.047       14.628        0.041      340.882       15.210      862.871
09/27/2013  17:04:00       85.992     -102.238        2.831       42.017       58.392       33.138     1765.459     3409.642     1098.145        1.206        0.314      133.594       21.504        0.026      341.448       16.168      862.870
09/27/2013  17:05:00       41.299      -61.912       -5.516       40.204       63.602       23.447     1616.324     4045.219      549.759        0.589        0.311       74.423        9.912        0.018      341.455       16.180      862.869
09/27/2013  17:06:00       21.083      -45.096        2.614       31.239       39.615       25.190      975.906     1569.377      634.552        0.283        0.159       49.781       16.107        0.105      341.338       15.982      862.877
09/27/2013  17:07:00       90.934       43.491       18.335       53.141       49.391       37.519     2823.918     2439.498     1407.654        0.858        0.334      100.799       14.228        0.020      341.614       16.451      862.886
09/27/2013  17:08:00       93.898       67.965       15.015       59.170       37.587       27.827     3501.047     1412.795      774.318        0.967        0.284      115.914       22.417        0.037      341.623       16.464      862.891
09/27/2013  17:09:00       97.822       66.605       18.671       72.016       45.789       32.992     5186.363     2096.617     1088.452        1.136        0.419      118.344       23.323        0.039      341.699       16.591      862.895
09/27/2013  17:10:00      205.105      144.179       18.300       63.608       47.401       39.496     4045.922     2246.841     1559.967        3.552        0.393      250.711       19.834        0.006      341.562       16.356      862.892
09/27/2013  17:11:00      113.442       66.835       36.837       47.901       45.608       32.754     2294.483     2080.066     1072.834        1.207        0.272      131.667       14.881        0.013      341.468       16.199      862.900
09/27/2013  17:12:00       36.027       18.204        4.014       27.769       26.588       27.475      771.107      706.923      754.861        0.194        0.112       40.364       21.925        0.295      341.670       16.543      862.893
09/27/2013  17:13:00       37.139       27.028        5.633       44.076       24.311       19.256     1942.685      591.005      370.806        0.252        0.145       45.933        9.682        0.044      341.496       16.250      862.881
09/27/2013  17:14:00       69.155       39.342       14.684       55.007       51.590       29.807     3025.805     2661.564      888.463        0.656        0.329       79.562       25.178        0.100      341.577       16.386      862.872
09/27/2013  17:15:00       52.911       91.745       -9.319       52.348       45.240       34.756     2740.338     2046.670     1207.982        0.865        0.300      105.909       27.186        0.066      341.713       16.617      862.864
09/27/2013  17:16:00      125.821       77.778       22.445       57.940       50.369       45.258     3357.002     2537.055     2048.303        1.516        0.397      147.920       33.412        0.051      341.689       16.576      862.851
09/27/2013  17:17:00      102.115       86.563        7.333       58.592       40.790       36.550     3433.037     1663.818     1335.884        1.220        0.322      133.868       23.902        0.032      341.627       16.470      862.848
09/27/2013  17:18:00       34.116       63.985        2.032       36.388       32.934       21.591     1324.085     1084.652      466.186        0.407        0.144       72.512       17.401        0.058      341.723       16.635      862.837
09/27/2013  17:19:00       24.988       71.921        0.066       24.530       54.029       26.253      601.725     2919.141      689.238        0.500        0.211       76.138       28.358        0.139      341.766       16.706      862.822
09/27/2013  17:20:00       32.096       59.626       -8.853       28.681       41.800       19.013      822.626     1747.233      361.486        0.380        0.147       67.716       18.156        0.072      341.707       16.608      862.807
09/27/2013  17:21:00       58.982       63.291        3.618       48.384       46.630       33.107     2340.992     2174.312     1096.073        0.655        0.281       86.513       28.464        0.108      341.719       16.627      862.794
09/27/2013  17:22:00      148.455      110.097       18.581       72.431       56.808       35.969     5246.291     3227.156     1293.757        2.213        0.488      184.825       19.910        0.012      341.700       16.592      862.790
09/27/2013  17:23:00      124.658      100.307       29.237       66.996       58.206       43.224     4488.415     3387.954     1868.311        1.810        0.487      160.003       24.044        0.023      341.687       16.571      862.787
09/27/2013  17:24:00      110.857       57.350       25.983       48.220       40.035       31.747     2325.157     1602.794     1007.840        1.059        0.247      124.813       18.570        0.022      341.709       16.609      862.797
09/27/2013  17:25:00      138.393       95.877       18.472       45.837       44.302       37.792     2101.033     1962.698     1428.252        1.709        0.275      168.360       27.835        0.027      341.621       16.460      862.808
09/27/2013  17:26:00      106.017       69.436       12.510       60.594       43.535       31.550     3671.684     1895.281      995.395        1.139        0.328      126.732       29.464        0.054      341.691       16.578      862.823
09/27/2013  17:27:00       96.483       77.906       30.074       35.072       33.700       34.245     1230.036     1135.673     1172.699        0.991        0.177      124.009        7.721        0.004      341.692       16.580      862.847
09/27/2013  17:28:00       35.321       13.918        3.367       34.974       34.898       21.245     1223.210     1217.884      451.365        0.217        0.145       37.964       14.009        0.136      341.390       16.068      862.873
09/27/2013  17:29:00        6.533       74.295       -7.694       12.143       47.438       19.959      147.459     2250.393      398.352        0.421        0.140       74.582       28.770        0.149      341.692       16.583      862.907
09/27/2013  17:30:00       23.105       89.532      -18.131       19.376       29.102       15.368      375.410      846.927      236.162        0.517        0.073       92.465       15.290        0.027      341.687       16.573      862.931
09/27/2013  17:31:00       22.495      113.630      -16.728       30.192       60.365       23.145      911.582     3643.939      535.708        0.939        0.255      115.835       29.816        0.066      341.667       16.541      862.948
09/27/2013  17:32:00       -5.872       81.218      -13.233       35.942       22.689       13.992     1291.850      514.809      195.767        0.440        0.100       81.430       14.046        0.030      341.703       16.601      862.958
09/27/2013  17:33:00       20.755       95.133      -14.729       23.360       23.948       21.323      545.698      573.503      454.671        0.564        0.079       97.371       14.996        0.024      341.685       16.571      862.959
09/27/2013  17:34:00       33.269       79.422      -11.885       17.585       37.011       21.654      309.226     1369.818      468.905        0.485        0.107       86.108       22.707        0.070      341.700       16.595      862.956
09/27/2013  17:35:00        7.300       34.113        3.986       41.074       16.494       23.690     1687.081      272.050      561.233        0.188        0.126       34.885       23.212        0.443      341.734       16.652      862.946
09/27/2013  17:36:00      -13.819       90.865      -14.116       18.883       24.580       10.780      356.578      604.185      116.211        0.486        0.054       91.910        7.974        0.008      341.773       16.719      862.947
09/27/2013  17:37:00       -2.037       64.814      -15.293       11.405       24.009        8.638      130.074      576.423       74.608        0.261        0.039       64.846        6.218        0.009      341.798       16.761      862.957
09/27/2013  17:38:00       -7.836       41.838       -6.733       11.779       19.861       12.633      138.747      394.448      159.587        0.127        0.035       42.565        7.377        0.030      341.856       16.859      862.964
09/27/2013  17:39:00       11.338       34.514       -0.133       12.788       23.438       15.388      163.538      549.339      236.791        0.113        0.047       36.328       13.688        0.142      341.568       16.372      862.969
09/27/2013  17:40:00        3.787       37.674        0.609       23.154       33.094       21.174      536.122     1095.231      448.326        0.176        0.104       37.864       23.457        0.384      341.644       16.501      862.962
09/27/2013  17:41:00       20.802        4.637       27.506       36.499       30.422       25.390     1332.213      925.502      644.665        0.206        0.145       21.312       24.862        1.361      340.959       15.340      862.954
09/27/2013  17:42:00       68.962      -19.395        8.481       24.157       17.663       24.262      583.570      311.991      588.642        0.334        0.074       71.637       14.060        0.039      341.194       15.738      862.946
09/27/2013  17:43:00       45.808      -21.145       10.096       31.370       18.627       22.209      984.064      346.957      493.249        0.224        0.091       50.453        3.113        0.004      341.240       15.816      862.943
09/27/2013  17:44:00        5.130        8.694        4.049       17.731       18.100       17.959      314.383      327.602      322.511        0.054        0.048       10.095       14.439        2.046      341.000       15.409      862.934
09/27/2013  17:45:00       49.312       25.073       26.967       71.911       44.269       32.788     5171.235     1959.710     1075.061        0.600        0.410       55.320       36.561        0.437      341.274       15.873      862.935
09/27/2013  17:46:00       41.253      -19.044       13.544       55.915       66.378       41.670     3126.520     4406.012     1736.385        0.576        0.463       45.437       43.680        0.924      341.316       15.945      862.942
09/27/2013  17:47:00       15.074       57.516       69.227       51.656       44.806       29.334     2668.350     2007.559      860.501        0.693        0.277       59.459       29.972        0.254      341.276       15.875      862.954
09/27/2013  17:48:00       21.737       22.713       30.064       48.102       40.187       32.602     2313.840     1614.974     1062.877        0.344        0.250       31.439       35.887        1.303      341.352       16.005      862.971
09/27/2013  17:49:00       14.535      -75.252       -0.305       18.086       28.440       18.161      327.092      808.837      329.829        0.367        0.073       76.643       15.020        0.038      341.326       15.960      862.980
09/27/2013  17:50:00       25.890       -8.842       11.925       34.019       50.781       27.463     1157.292     2578.755      754.208        0.269        0.225       27.359       14.848        0.295      341.394       16.076      862.978
09/27/2013  17:51:00       40.011       29.660       11.548       25.916       26.759       25.891      671.655      716.037      670.358        0.234        0.103       49.806       15.884        0.102      341.141       15.648      862.984
09/27/2013  17:52:00       18.545       27.756        2.078       13.598       11.590       15.186      184.909      134.325      230.628        0.083        0.027       33.382        4.531        0.018      341.372       16.041      862.997
09/27/2013  17:53:00       -3.111       18.339        2.379       16.893        9.460        7.736      285.375       89.485       59.851        0.039        0.022       18.601        6.266        0.113      341.584       16.399      863.011
09/27/2013  17:54:00       -1.164        3.992       17.431       32.442       20.517       13.971     1052.511      420.954      195.199        0.099        0.083        4.158       11.398        7.514      341.158       15.678      863.016
09/27/2013  17:55:00      -50.777      -12.932        0.827       31.946       23.368       18.598     1020.532      546.077      345.892        0.233        0.096       52.398       12.659        0.058      341.674       16.551      863.024
09/27/2013  17:56:00       17.815       -9.808        5.654       15.907       24.401       23.355      253.018      595.423      545.468        0.092        0.070       20.337       13.996        0.474      340.880       15.206      863.044
09/27/2013  17:57:00       59.371      -19.642        7.981       21.077       22.380       22.110      444.226      500.876      488.854        0.270        0.072       62.536        8.224        0.017      340.664       14.841      863.068
09/27/2013  17:58:00       64.976        9.360       18.485       20.484       35.206       32.091      419.596     1239.450     1029.828        0.367        0.134       65.647       26.972        0.169      340.712       14.922      863.095
09/27/2013  17:59:00       14.493       17.091        1.968       30.667       17.412       26.089      940.477      303.191      680.620        0.121        0.096       22.408       20.569        0.843      341.124       15.619      863.107
09/27/2013  18:00:00       -4.765        5.680       13.056       25.328       26.913       23.596      641.508      724.322      556.764        0.107        0.096        7.414       20.187        7.414      341.001       15.410      863.109
09/27/2013  18:01:00       71.852       21.518       39.062       47.590       69.908       37.878     2264.806     4887.183     1434.709        0.787        0.429       75.005       34.225        0.208      341.102       15.581      863.107
09/27/2013  18:02:00       48.162       57.823       52.368       61.233       33.916       27.976     3749.474     1150.326      782.632        0.704        0.284       75.254       26.561        0.125      341.247       15.829      863.105
09/27/2013  18:03:00       51.129       62.312       51.940       49.055       40.235       20.842     2406.442     1618.868      434.404        0.683        0.223       80.603       12.954        0.026      341.332       15.972      863.102
09/27/2013  18:04:00       76.799       49.261       27.735       26.952       27.276       34.869      726.405      743.986     1215.860        0.589        0.134       91.240       19.450        0.045      341.116       15.605      863.097
09/27/2013  18:05:00       53.181       22.083       -0.701       28.856       35.300       24.101      832.653     1246.085      580.869        0.299        0.133       57.584        9.127        0.025      341.357       16.015      863.097
09/27/2013  18:06:00       30.386        5.017       16.176       22.680       38.939       19.910      514.367     1516.253      396.426        0.182        0.121       30.797       17.759        0.333      341.131       15.631      863.100
09/27/2013  18:07:00       65.256       43.461       24.606       33.235       25.920       23.849     1104.573      671.865      568.792        0.455        0.117       78.404        2.322        0.001      341.545       16.332      863.091
09/27/2013  18:08:00       83.125       67.317       37.603       51.762       30.047       25.609     2679.342      902.843      655.845        0.855        0.212      106.964       26.091        0.059      341.602       16.428      863.082
09/27/2013  18:09:00       70.480       66.014       44.304       33.474       25.049       26.007     1120.493      627.445      676.372        0.686        0.121       96.568       18.982        0.039      341.337       15.980      863.077
09/27/2013  18:10:00       97.876       65.024       32.222       27.633       29.780       26.374      763.557      886.870      695.596        0.860        0.117      117.507       12.295        0.011      341.475       16.214      863.079
09/27/2013  18:11:00       13.329       16.130       -1.004       21.103       23.430       21.236      445.327      548.985      450.974        0.094        0.072       20.924       11.436        0.299      341.157       15.675      863.087
09/27/2013  18:12:00       11.728       30.112       24.263       37.506       31.034       19.573     1406.726      963.092      383.120        0.219        0.138       32.315       22.305        0.476      341.041       15.478      863.080
09/27/2013  18:13:00       18.841       23.602       15.263       23.952       17.081       23.018      573.705      291.767      529.820        0.127        0.070       30.200       16.074        0.283      341.165       15.689      863.072
09/27/2013  18:14:00       -5.511        9.839       18.332       20.264       19.780       13.921      410.644      391.247      193.785        0.073        0.050       11.277        9.231        0.670      341.151       15.665      863.064
09/27/2013  18:15:00        7.113       -0.399       -8.214       15.041       20.645       14.359      226.219      426.211      206.169        0.049        0.043        7.124        7.892        1.227      341.032       15.463      863.056
09/27/2013  18:16:00        0.358       41.582      -11.562       14.559       33.379       10.112      211.979     1114.174      102.251        0.165        0.071       41.584       12.973        0.097      341.502       16.257      863.046
09/27/2013  18:17:00       31.758      -36.450        1.561       40.919       26.515       21.848     1674.398      703.063      477.357        0.260        0.143       48.344       13.990        0.084      340.996       15.403      863.042
09/27/2013  18:18:00       54.401       39.838       13.864       33.402       24.455       22.291     1115.689      598.064      496.906        0.347        0.111       67.428       17.989        0.071      340.987       15.387      863.032
09/27/2013  18:19:00        5.714      -10.086        5.838       26.915       29.145       16.072      724.399      849.431      258.311        0.100        0.092       11.592       13.650        1.386      340.879       15.204      863.026
09/27/2013  18:20:00       33.864       35.901       24.044       47.772       42.466       24.565     2282.127     1803.353      603.421        0.385        0.234       49.352       28.055        0.323      341.078       15.542      863.029
09/27/2013  18:21:00      125.352       94.762       43.286       28.612       24.632       31.024      818.654      606.745      962.466        1.448        0.119      157.140       21.427        0.019      341.533       16.312      863.027
09/27/2013  18:22:00       34.657       33.109        9.988       43.541       34.285       28.769     1895.784     1175.489      827.664        0.315        0.195       47.930       18.548        0.150      341.244       15.822      863.042
09/27/2013  18:23:00      -10.707       22.051      -13.753       20.308       29.367       31.186      412.398      862.433      972.580        0.152        0.112       24.513       17.280        0.497      340.704       14.909      863.061
09/27/2013  18:24:00       12.316       18.578      -11.243       17.647       30.072       25.489      311.414      904.346      649.706        0.124        0.093       22.289       12.525        0.316      340.480       14.529      863.076
09/27/2013  18:25:00       45.158       -0.296        4.270       17.345       14.482       19.941      300.834      209.715      397.637        0.148        0.045       45.159        7.694        0.029      340.638       14.798      863.096
09/27/2013  18:26:00       38.922       24.152        9.876       16.607       20.467       18.058      275.800      418.901      326.089        0.161        0.051       45.806       11.635        0.065      340.842       15.142      863.115
09/27/2013  18:27:00        9.181       12.599        4.761       12.546       17.667       10.925      157.415      312.129      119.353        0.043        0.029       15.589       11.835        0.576      340.775       15.028      863.135
09/27/2013  18:28:00       12.308       30.645       14.114       11.719       15.599       16.220      137.332      243.340      263.095        0.097        0.032       33.025        5.389        0.027      340.981       15.378      863.157
09/27/2013  18:29:00       24.756        7.755       25.050       16.884       18.769       16.271      285.082      352.278      264.745        0.110        0.045       25.942        8.326        0.103      340.681       14.870      863.173
09/27/2013  18:30:00       29.129       17.392       17.643       26.047       12.509       14.567      678.447      156.486      212.208        0.125        0.052       33.926        9.465        0.078      340.722       14.938      863.183
09/27/2013  18:31:00       16.250       37.167       12.963       20.152       17.616       18.275      406.119      310.325      333.988        0.143        0.053       40.564       14.638        0.130      340.726       14.945      863.193
09/27/2013  18:32:00        0.426       82.015       -4.701       17.795       26.200       15.952      316.664      686.414      254.480        0.400        0.063       82.016       16.795        0.042      341.511       16.273      863.208
09/27/2013  18:33:00       14.886       90.057       -4.677       15.213       21.132        9.388      231.424      446.555       88.132        0.456        0.038       91.279        8.800        0.009      341.464       16.194      863.206
09/27/2013  18:34:00       14.791       96.973       -7.744       11.870       16.657        9.669      140.889      277.470       93.496        0.510        0.026       98.094        8.104        0.007      341.490       16.237      863.207
09/27/2013  18:35:00        8.520       95.801      -12.902       13.435       15.284        8.424      180.491      233.611       70.962        0.495        0.024       96.179        7.824        0.007      341.527       16.299      863.204
09/27/2013  18:36:00        8.392       66.826       -7.330       10.536       11.514        6.841      111.012      132.561       46.803        0.244        0.015       67.351        4.896        0.005      341.480       16.221      863.207
09/27/2013  18:37:00       17.424       73.074      -12.664       10.766       13.333        6.165      115.912      177.758       38.013        0.307        0.017       75.122        4.724        0.004      341.498       16.252      863.204
09/27/2013  18:38:00       15.626       50.532       -1.502       13.311       17.324       13.243      177.195      300.104      175.367        0.173        0.033       52.893       11.629        0.048      341.438       16.149      863.189
09/27/2013  18:39:00       25.468       21.709        5.587       21.938       22.368       11.190      481.254      500.310      125.217        0.113        0.055       33.465       10.503        0.099      341.280       15.883      863.171
09/27/2013  18:40:00       39.799       10.806       -6.757       14.745       17.261       21.302      217.403      297.946      453.777        0.136        0.048       41.240       11.329        0.075      340.781       15.040      863.160
09/27/2013  18:41:00       40.437       -7.670        8.446       23.392       23.059       19.270      547.181      531.697      371.314        0.161        0.073       41.158        9.837        0.057      340.395       14.386      863.153
09/27/2013  18:42:00       64.686      -14.032       -8.571       19.649       19.792       26.689      386.074      391.738      712.298        0.297        0.075       66.190       16.474        0.062      340.362       14.329      863.142
09/27/2013  18:43:00       62.079       27.911       -4.230       20.301       22.637       19.065      412.110      512.439      363.476        0.297        0.064       68.065        6.292        0.009      340.659       14.832      863.143
09/27/2013  18:44:00       46.048       10.709       -9.891       24.387       36.369       22.304      594.748     1322.724      497.456        0.237        0.121       47.277        6.252        0.017      340.588       14.712      863.139
09/27/2013  18:45:00       59.994       25.271       -0.668       25.277       35.251       27.955      638.949     1242.630      781.510        0.345        0.133       65.099       17.080        0.069      340.622       14.770      863.139
09/27/2013  18:46:00       43.935        4.761        2.818       16.787       22.374       23.422      281.803      500.605      548.599        0.165        0.067       44.192        8.710        0.039      340.314       14.249      863.149
09/27/2013  18:47:00       28.008       13.041        6.387       20.084       20.375       16.074      403.367      415.143      258.360        0.104        0.054       30.895        8.344        0.073      340.595       14.724      863.145
09/27/2013  18:48:00       33.952       20.679       12.578       16.136       19.431       13.643      260.378      377.574      186.120        0.128        0.041       39.754        9.063        0.052      340.890       15.223      863.159
09/27/2013  18:49:00       42.861       36.483        8.965       17.046       27.356       22.093      290.574      748.326      488.110        0.239        0.076       56.286       17.732        0.099      340.737       14.964      863.160
09/27/2013  18:50:00       29.973       20.843        7.345       20.453       23.034       15.898      418.341      530.584      252.751        0.129        0.060       36.508       16.672        0.209      340.739       14.968      863.181
09/27/2013  18:51:00       13.162       28.827       15.726       15.710       16.330       16.317      246.816      266.666      266.235        0.102        0.039       31.690        5.679        0.032      340.624       14.772      863.184
09/27/2013  18:52:00        0.727       66.284        3.281       14.958       25.649       12.580      223.751      657.849      158.263        0.272        0.052       66.288       13.807        0.043      341.236       15.807      863.198
09/27/2013  18:53:00       -4.960       73.798       -0.972       14.412       16.653       10.760      207.715      277.337      115.773        0.304        0.030       73.965       10.845        0.022      341.329       15.965      863.195
09/27/2013  18:54:00        3.257       69.516        1.665        7.768       12.701        6.228       60.344      161.310       38.789        0.255        0.013       69.592        3.423        0.002      341.441       16.156      863.189
09/27/2013  18:55:00        3.990       37.313        0.840       16.396       23.361       10.140      268.839      545.735      102.828        0.116        0.046       37.525        5.135        0.019      341.220       15.781      863.185
09/27/2013  18:56:00       -9.544       16.033        9.636       14.421       13.836       13.382      207.956      191.441      179.081        0.051        0.029       18.659        9.663        0.268      341.109       15.596      863.174
09/27/2013  18:57:00        7.494       28.325        4.470       11.267       11.542       10.354      126.942      133.209      107.213        0.062        0.018       29.300        5.837        0.040      341.308       15.930      863.180
09/27/2013  18:58:00        9.003       37.611        6.820       12.057       25.445       12.988      145.362      647.433      168.681        0.125        0.048       38.673       12.598        0.106      341.304       15.924      863.177
09/27/2013  18:59:00       26.348        8.780        9.529       31.545       19.389       11.189      995.078      375.918      125.202        0.118        0.075       27.772       11.641        0.176      340.601       14.735      863.163
09/27/2013  19:00:00       24.946      -13.834       -3.861       27.907       16.596       19.092      778.811      275.429      364.515        0.112        0.071       28.525        7.364        0.067      340.455       14.488      863.151
09/27/2013  19:01:00       35.322       -8.691       12.587       15.159       17.225       19.805      229.810      296.706      392.243        0.120        0.046       36.376       10.532        0.084      340.387       14.373      863.140
09/27/2013  19:02:00       22.850       -0.802       -6.577       16.305       26.050       13.861      265.856      678.579      192.129        0.085        0.057       22.865        9.513        0.173      340.372       14.346      863.142
09/27/2013  19:03:00       31.602       19.784       -5.893       24.119       29.860       20.330      581.711      891.638      413.321        0.166        0.094       37.284       20.195        0.293      340.692       14.888      863.158
09/27/2013  19:04:00        7.332       14.868       13.746       11.751       14.306       11.808      138.094      204.661      139.422        0.047        0.024       16.577       11.093        0.448      340.610       14.749      863.163
09/27/2013  19:05:00       -3.646       13.045       18.825        8.577       13.175        8.741       73.569      173.572       76.405        0.043        0.016       13.545        8.512        0.395      340.102       13.891      863.173
09/27/2013  19:06:00        1.795       12.463        4.021        8.014       11.794       12.040       64.231      139.106      144.963        0.026        0.017       12.592        9.528        0.573      340.583       14.703      863.186
09/27/2013  19:07:00      -19.170       -3.244       -1.683        9.937        7.885        6.594       98.752       62.167       43.474        0.029        0.010       19.443        4.886        0.063      340.672       14.855      863.196
09/27/2013  19:08:00      -31.902       -8.451       -6.111       12.825        8.276        7.613      164.485       68.489       57.954        0.071        0.015       33.002        6.791        0.042      340.647       14.813      863.213
09/27/2013  19:09:00      -30.564       -8.601       -4.445       10.310        7.746        7.731      106.304       60.001       59.763        0.063        0.011       31.751        5.989        0.036      340.802       15.073      863.236
09/27/2013  19:10:00       -1.533        1.335        5.759        8.423        6.400        6.104       70.953       40.959       37.257        0.009        0.007        2.033        5.551        7.458      340.515       14.589      863.255
09/27/2013  19:11:00      -37.955       -8.679       -4.684       21.797       10.791        8.076      475.126      116.442       65.217        0.110        0.033       38.935        7.451        0.037      340.623       14.772      863.253
09/27/2013  19:12:00      -56.488      -12.996       -9.693       12.886       12.861       11.483      166.043      165.411      131.848        0.196        0.023       57.964        7.865        0.018      340.654       14.824      863.250
09/27/2013  19:13:00      -69.004      -27.674       -7.265       11.429       15.943       15.309      130.615      254.180      234.364        0.310        0.031       74.346        4.812        0.004      340.505       14.573      863.256
09/27/2013  19:14:00      -61.700      -18.368       -9.114       12.756       16.039       11.073      162.722      257.258      122.609        0.238        0.027       64.376        4.845        0.006      340.317       14.254      863.264
09/27/2013  19:15:00      -53.616      -15.071       -2.289       16.453       15.715       11.475      270.703      246.974      131.671        0.188        0.032       55.694        5.381        0.009      340.233       14.111      863.257
09/27/2013  19:16:00      -62.499      -15.220       -3.753       17.116       19.775       12.712      292.941      391.067      161.600        0.250        0.042       64.325        9.509        0.022      340.259       14.155      863.250
09/27/2013  19:17:00      -64.505      -26.556       -9.084       24.084       18.858       13.498      580.044      355.630      182.186        0.303        0.056       69.758        9.290        0.018      340.265       14.167      863.228
09/27/2013  19:18:00      -73.570      -18.259       -7.826       23.571       14.405       12.162      555.599      207.512      147.915        0.336        0.046       75.802       10.583        0.019      340.200       14.056      863.211
09/27/2013  19:19:00      -46.351      -38.911       -6.727       21.602       20.348       13.185      466.646      414.049      173.845        0.238        0.053       60.518        7.533        0.015      340.241       14.123      863.196
09/27/2013  19:20:00      -78.165      -29.722      -12.907       18.012       13.826       10.500      324.414      191.146      110.249        0.389        0.031       83.625        5.706        0.005      340.227       14.102      863.199
09/27/2013  19:21:00      -71.183      -23.790      -14.012       12.548       11.166        7.905      157.460      124.680       62.482        0.309        0.017       75.053        5.058        0.005      340.141       13.954      863.211
09/27/2013  19:22:00      -31.708      -31.377       -5.953       16.407       15.527       14.241      269.194      241.103      202.819        0.137        0.036       44.608        6.643        0.022      340.210       14.073      863.233
09/27/2013  19:23:00      -49.945      -37.792       -7.388       17.309       22.867       11.004      299.612      522.915      121.094        0.246        0.047       62.632        8.776        0.020      340.243       14.129      863.249
09/27/2013  19:24:00      -50.683      -15.177       -4.406       20.601       19.656       13.698      424.389      386.343      187.625        0.191        0.050       52.907       12.717        0.058      340.192       14.043      863.267
09/27/2013  19:25:00      -72.753      -15.024      -13.979       17.729       16.338       11.908      314.331      266.918      141.812        0.322        0.036       74.288        6.517        0.008      340.238       14.122      863.277
09/27/2013  19:26:00      -92.787       -2.872      -16.004       19.374       13.800       10.442      375.354      190.439      109.027        0.477        0.034       92.831        6.559        0.005      340.157       13.983      863.290
09/27/2013  19:27:00      -78.399      -13.314       -7.360       35.556       19.345       14.610     1264.245      374.215      213.462        0.411        0.093       79.522       14.981        0.035      340.054       13.809      863.307
09/27/2013  19:28:00     -109.923       -1.370      -17.189       17.695       20.054       15.439      313.119      402.167      238.371        0.667        0.048      109.932       11.772        0.011      340.078       13.851      863.322
09/27/2013  19:29:00     -112.997      -30.930      -13.450       28.120       19.866       18.351      790.743      394.661      336.776        0.771        0.076      117.154       11.331        0.009      339.943       13.622      863.329
09/27/2013  19:30:00     -116.428      -26.797      -12.473       22.063       24.387       15.474      486.766      594.748      239.451        0.787        0.066      119.472       10.191        0.007      339.915       13.577      863.336
09/27/2013  19:31:00      -91.253      -17.494      -12.509       32.382       32.860       16.239     1048.606     1079.759      263.712        0.559        0.120       92.914       14.587        0.025      339.889       13.530      863.353
09/27/2013  19:32:00      -47.332       18.061       -7.627       38.446       31.766       20.856     1478.104     1009.058      434.993        0.277        0.146       50.661       15.858        0.098      339.822       13.418      863.367
09/27/2013  19:33:00      -95.504        8.902      -21.283       39.261       28.530       21.888     1541.394      813.983      479.095        0.624        0.142       95.918       13.719        0.020      339.891       13.536      863.372
09/27/2013  19:34:00      -63.238       -6.369      -10.213       40.508       40.775       25.283     1640.903     1662.561      639.226        0.404        0.197       63.558       19.179        0.091      339.923       13.590      863.382
09/27/2013  19:35:00      -60.869        3.258      -11.846       50.662       41.833       27.851     2566.638     1750.021      775.661        0.447        0.255       60.956       26.359        0.187      339.945       13.626      863.401
09/27/2013  19:36:00     -133.590       16.150      -21.677       41.050       38.199       23.713     1685.080     1459.196      562.285        1.114        0.185      134.563       12.004        0.008      340.000       13.718      863.413
09/27/2013  19:37:00      -67.781       25.472       -7.218       50.589       35.649       31.114     2559.222     1270.871      968.073        0.505        0.240       72.409       28.065        0.150      339.840       13.448      863.441
09/27/2013  19:38:00     -101.939       29.925      -16.681       56.081       34.428       23.445     3145.051     1185.263      549.664        0.822        0.244      106.240       24.164        0.052      339.875       13.508      863.468
09/27/2013  19:39:00      -85.078        3.157      -10.266       57.357       34.525       24.112     3289.867     1192.005      581.376        0.621        0.253       85.137       17.011        0.040      339.860       13.484      863.483
09/27/2013  19:40:00      -43.485        6.740       -4.500       25.218       27.606       18.693      635.964      762.097      349.436        0.185        0.087       44.005       12.204        0.077      339.757       13.308      863.506
09/27/2013  19:41:00     -108.506       24.475      -14.961       42.173       36.770       19.583     1778.567     1352.043      383.496        0.805        0.176      111.232       15.224        0.019      339.817       13.409      863.524
09/27/2013  19:42:00     -114.853        0.267      -19.481       50.232       40.021       17.365     2523.268     1601.695      301.532        0.900        0.221      114.853       15.292        0.018      339.866       13.494      863.527
09/27/2013  19:43:00     -113.178      -15.903       -9.837       45.798       37.151       23.838     2097.485     1380.216      568.272        0.860        0.202      114.290       21.818        0.036      339.851       13.468      863.541
09/27/2013  19:44:00     -139.474      -16.311      -12.190       31.319       33.043       18.526      980.876     1091.816      343.205        1.114        0.121      140.425       15.434        0.012      339.766       13.325      863.560
09/27/2013  19:45:00      -90.395      -15.317       -2.682       44.488       34.474       26.758     1979.204     1188.443      715.994        0.615        0.194       91.683       21.122        0.053      339.758       13.311      863.562
09/27/2013  19:46:00      -71.504      -12.732        2.823       62.537       34.810       27.169     3910.920     1211.768      738.179        0.557        0.293       72.628       29.406        0.164      339.640       13.113      863.576
09/27/2013  19:47:00      -69.790      -24.670       -0.506       53.427       42.545       19.033     2854.469     1810.093      362.241        0.525        0.251       74.022       19.449        0.069      339.617       13.074      863.590
09/27/2013  19:48:00      -50.513      -16.049       -0.474       41.440       30.258       22.984     1717.309      915.564      528.254        0.298        0.158       53.001       21.148        0.159      339.606       13.054      863.610
09/27/2013  19:49:00     -104.420       -3.137       -8.347       43.320       28.527       22.295     1876.605      813.803      497.079        0.708        0.159      104.467       19.036        0.033      339.622       13.080      863.624
09/27/2013  19:50:00      -59.196      -20.869       -7.782       28.645       20.412       16.310      820.545      416.660      266.009        0.275        0.075       62.767       10.478        0.028      339.691       13.200      863.652
09/27/2013  19:51:00      -45.387       -3.386      -17.529       28.115       24.305       15.407      790.446      590.723      237.363        0.200        0.081       45.513       16.680        0.134      340.159       13.988      863.661
09/27/2013  19:52:00      -58.949       -6.584      -10.750       23.720       17.488        9.093      562.662      305.822       82.677        0.229        0.048       59.315        6.658        0.013      339.773       13.336      863.669
09/27/2013  19:53:00      -48.794      -31.311      -11.875       15.199       17.425        8.730      230.995      303.627       76.211        0.206        0.031       57.976        4.802        0.007      339.749       13.296      863.684
09/27/2013  19:54:00      -53.242      -20.215       -9.071       11.342        8.543        8.991      128.643       72.987       80.843        0.180        0.014       56.950        4.436        0.006      339.771       13.333      863.698
09/27/2013  19:55:00      -12.809       -9.676        3.106       29.440       17.751       15.123      866.739      315.108      228.697        0.084        0.071       16.053       14.306        0.794      340.150       13.972      863.712
09/27/2013  19:56:00      -41.784       -4.975       -7.575       10.423        8.158        9.041      108.642       66.554       81.743        0.104        0.013       42.080        4.332        0.011      339.917       13.580      863.725
09/27/2013  19:57:00      -16.081        1.370       -3.600       12.384       11.673        7.183      153.355      136.253       51.600        0.031        0.017       16.139        3.957        0.060      340.091       13.873      863.731
09/27/2013  19:58:00      -20.705        2.747       -8.245       19.365       16.690       10.518      375.006      278.565      110.619        0.063        0.038       20.886       11.043        0.280      340.086       13.864      863.738
09/27/2013  19:59:00      -52.205       -9.924      -12.107       12.050        9.615        5.715      145.203       92.449       32.666        0.162        0.014       53.140        0.713        0.000      339.832       13.436      863.727
09/27/2013  20:00:00      -62.033      -21.050      -11.624        9.345        7.802        6.473       87.324       60.870       41.895        0.231        0.010       65.507        5.066        0.006      339.682       13.182      863.728
09/27/2013  20:01:00      -53.972       -2.618      -11.107       16.007       11.077       10.761      256.229      122.695      115.800        0.177        0.025       54.036        7.258        0.018      339.661       13.148      863.712
09/27/2013  20:02:00      -70.979       -8.369      -12.022       17.269       11.297        8.273      298.206      127.625       68.446        0.287        0.025       71.470        5.941        0.007      339.670       13.162      863.711
09/27/2013  20:03:00      -85.535      -24.646      -10.239       10.583        9.784       12.390      112.001       95.719      153.521        0.419        0.018       89.015        7.923        0.008      339.692       13.198      863.700
09/27/2013  20:04:00      -75.230      -11.413      -12.616        7.348        8.544        6.113       53.999       72.996       37.364        0.306        0.008       76.091        1.610        0.000      339.803       13.386      863.698
09/27/2013  20:05:00      -80.335      -23.408      -13.755       10.729       14.893       10.178      115.109      221.807      103.600        0.382        0.022       83.676        8.795        0.011      339.559       12.975      863.691
09/27/2013  20:06:00      -56.849      -35.170       -9.000       27.017       16.383       18.762      729.928      268.405      352.001        0.295        0.068       66.849       18.028        0.073      339.556       12.971      863.699
09/27/2013  20:07:00      -44.769      -21.674       -8.412       22.087       17.894       10.974      487.844      320.181      120.431        0.174        0.046       49.740        7.932        0.025      339.306       12.549      863.706
09/27/2013  20:08:00      -68.798      -43.105       -7.643       16.969       14.648       12.720      287.959      214.571      161.786        0.366        0.033       81.186        9.362        0.013      339.298       12.535      863.725
09/27/2013  20:09:00      -72.255      -37.734      -10.214        8.906       10.917        6.514       79.312      119.171       42.434        0.349        0.012       81.514        3.467        0.002      339.374       12.664      863.740
09/27/2013  20:10:00      -65.036      -25.692       -6.583        7.750        9.028        5.796       60.058       81.497       33.594        0.255        0.009       69.926        4.106        0.003      339.524       12.915      863.776
09/27/2013  20:11:00      -59.434      -21.509       -5.859       17.533       15.951       10.276      307.409      254.422      105.595        0.235        0.033       63.206        7.657        0.015      339.484       12.849      863.807
09/27/2013  20:12:00      -34.201      -23.495        5.360       26.279       19.420        9.843      690.586      377.149       96.882        0.146        0.058       41.494        9.145        0.049      339.366       12.650      863.834
09/27/2013  20:13:00      -54.509      -14.898      -10.149       10.132       13.686        5.557      102.653      187.301       30.883        0.181        0.016       56.508        4.078        0.005      339.475       12.834      863.863
09/27/2013  20:14:00      -76.629       -5.018      -10.122        7.635        8.102        6.038       58.296       65.649       36.463        0.308        0.008       76.793        4.169        0.003      339.463       12.813      863.884
09/27/2013  20:15:00      -68.561       -6.444       -6.722       13.215       11.301        8.800      174.634      127.716       77.436        0.258        0.019       68.863        6.040        0.008      339.504       12.882      863.904
09/27/2013  20:16:00      -62.399      -12.380       -5.413       14.675       11.465       13.794      215.341      131.456      190.280        0.231        0.027       63.615        8.404        0.017      339.647       13.123      863.908
09/27/2013  20:17:00      -37.095       -2.564       -7.218        9.010       11.021        5.006       81.181      121.461       25.058        0.083        0.011       37.183        4.645        0.016      339.638       13.110      863.909
09/27/2013  20:18:00      -30.209       -8.105       -1.418        6.460        8.267        8.040       41.736       68.343       64.643        0.058        0.009       31.277        6.591        0.044      339.587       13.023      863.907
09/27/2013  20:19:00      -32.044      -12.185       -2.352        7.583        8.163        5.704       57.502       66.635       32.539        0.067        0.008       34.283        3.270        0.009      339.547       12.955      863.910
09/27/2013  20:20:00      -33.699        7.725       -6.872       17.344       23.266       10.079      300.798      541.285      101.595        0.109        0.047       34.573        7.682        0.049      339.656       13.140      863.903
09/27/2013  20:21:00      -45.030       38.776       -8.513       32.723       43.725       19.746     1070.796     1911.870      389.920        0.349        0.169       59.425       23.736        0.160      339.756       13.307      863.902
09/27/2013  20:22:00      -57.128       27.333       -8.799       20.483       30.655       14.036      419.537      939.739      196.997        0.282        0.078       63.330       13.972        0.049      339.674       13.170      863.903
09/27/2013  20:23:00      -35.066        3.572        0.217       14.590       25.061       10.150      212.868      628.043      103.024        0.109        0.047       35.247        5.498        0.024      339.677       13.174      863.920
09/27/2013  20:24:00      -32.875       -1.653      -11.015       20.151       10.682        9.158      406.068      114.100       83.861        0.090        0.030       32.917        8.638        0.069      339.454       12.800      863.944
09/27/2013  20:25:00      -52.935       -3.532       -7.899       13.164       10.005        7.143      173.301      100.097       51.028        0.160        0.016       53.052        6.114        0.013      339.391       12.692      863.977
09/27/2013  20:26:00      -73.932      -12.575       -8.924       18.377       11.702        8.771      337.697      136.948       76.933        0.313        0.028       74.994        7.196        0.009      339.402       12.710      864.012
09/27/2013  20:27:00      -61.696        9.673       -6.822       20.422       19.019       12.549      417.038      361.736      157.476        0.244        0.047       62.449        4.311        0.005      339.638       13.110      864.051
09/27/2013  20:28:00      -21.845      -17.761       -7.184       31.367       14.407       13.142      983.892      207.575      172.725        0.110        0.068       28.154        5.879        0.044      339.484       12.849      864.077
09/27/2013  20:29:00      -25.456       -1.622        2.376       21.872       16.434        8.051      478.386      270.091       64.813        0.073        0.041       25.508       11.567        0.206      339.256       12.464      864.121
09/27/2013  20:30:00      -64.448      -37.004      -10.749       10.416       10.333        8.969      108.498      106.773       80.444        0.297        0.015       74.316        6.862        0.009      339.354       12.630      864.147
09/27/2013  20:31:00      -91.891      -12.376      -10.769       40.312       27.194       15.126     1625.019      739.535      228.793        0.565        0.130       92.720       16.701        0.032      339.486       12.853      864.172
09/27/2013  20:32:00      -92.658        3.779      -16.762       16.717       24.005       13.591      279.466      576.260      184.702        0.496        0.052       92.735        8.964        0.009      339.491       12.861      864.184
09/27/2013  20:33:00      -78.540        1.784      -10.068       15.893       17.572       10.742      252.597      308.782      115.386        0.347        0.034       78.560        7.577        0.009      339.502       12.879      864.204
09/27/2013  20:34:00     -113.382       10.111       -8.823       36.364       23.807       17.032     1322.359      566.776      290.097        0.761        0.109      113.832       16.183        0.020      339.505       12.884      864.212
09/27/2013  20:35:00     -134.323       28.872      -16.350       35.163       48.786       27.611     1236.465     2380.099      762.385        1.176        0.219      137.391       22.757        0.027      339.503       12.881      864.228
09/27/2013  20:36:00      -69.822       11.713      -12.829       36.713       20.064       14.609     1347.833      402.548      213.430        0.357        0.098       70.798       13.629        0.037      339.341       12.605      864.234
09/27/2013  20:37:00      -84.731        8.931       -8.979       46.738       28.364       20.808     2184.409      804.534      432.981        0.538        0.171       85.200       20.248        0.056      339.398       12.704      864.256
09/27/2013  20:38:00     -107.104       52.405      -12.098       38.828       44.715       28.278     1507.619     1999.450      799.663        0.933        0.215      119.238       26.658        0.050      339.567       12.988      864.272
09/27/2013  20:39:00      -70.213       93.136      -20.323       43.330       33.338       20.664     1877.524     1111.443      427.003        0.872        0.171      116.637       22.426        0.037      339.566       12.988      864.290
09/27/2013  20:40:00      -36.789       32.545      -11.962       36.918       29.134       16.985     1362.923      848.795      288.498        0.253        0.125       49.118       16.403        0.112      339.492       12.863      864.285
09/27/2013  20:41:00       -7.677       55.143       -7.791       43.997       34.180       17.795     1935.720     1168.303      316.648        0.329        0.171       55.674       14.086        0.064      339.553       12.965      864.278
09/27/2013  20:42:00      -79.816        9.374       -9.476       16.029       30.381       14.494      256.925      923.030      210.080        0.397        0.070       80.365        9.625        0.014      339.280       12.506      864.274
09/27/2013  20:43:00     -130.240       86.782      -25.455       46.065       45.232       32.214     2121.974     2045.978     1037.756        1.517        0.260      156.505       27.094        0.030      339.495       12.866      864.261
09/27/2013  20:44:00     -127.397      102.920      -24.365       65.897       56.711       41.709     4342.349     3216.174     1739.680        1.836        0.465      163.776       33.012        0.041      339.505       12.884      864.263
09/27/2013  20:45:00     -123.216       85.556      -31.901       51.364       76.958       37.473     2638.252     5922.517     1404.229        1.674        0.498      150.007       30.313        0.041      339.513       12.898      864.274
09/27/2013  20:46:00     -117.075      104.276      -26.891       65.157       54.411       27.410     4245.408     2960.573      751.285        1.663        0.398      156.780       31.412        0.040      339.559       12.972      864.299
09/27/2013  20:47:00     -115.835      117.121      -30.667       40.587       53.822       34.363     1647.339     2896.798     1180.833        1.690        0.286      164.728       32.791        0.040      339.513       12.895      864.301
09/27/2013  20:48:00      -95.190      110.662      -16.810       53.759       43.204       29.787     2889.991     1866.620      887.277        1.362        0.282      145.970       27.149        0.035      339.483       12.847      864.313
09/27/2013  20:49:00     -136.964      105.773      -28.668       45.503       53.240       30.899     2070.555     2834.517      954.731        1.831        0.293      173.052       30.447        0.031      339.529       12.924      864.303
09/27/2013  20:50:00     -107.716      109.388      -13.612       47.187       50.126       31.383     2226.653     2512.632      984.884        1.474        0.286      153.520       25.377        0.027      339.488       12.856      864.306
09/27/2013  20:51:00      -92.878      173.892      -22.882       41.771       80.942       28.495     1744.806     6551.587      811.992        2.425        0.455      197.142       17.262        0.008      339.507       12.886      864.304
09/27/2013  20:52:00      -99.227      119.997      -24.250       34.568       56.452       24.656     1194.918     3186.852      607.932        1.491        0.249      155.709       16.961        0.012      339.480       12.841      864.319
09/27/2013  20:53:00     -135.452      146.151      -35.768       59.404       48.387       31.394     3528.835     2341.334      985.609        2.392        0.343      199.267       24.826        0.016      339.506       12.885      864.321
09/27/2013  20:54:00      -97.448       94.621      -10.557       68.524       49.587       36.345     4695.579     2458.907     1320.956        1.352        0.424      135.828       33.342        0.060      339.437       12.770      864.333
09/27/2013  20:55:00     -122.573      164.331      -34.418       55.601       58.279       36.394     3091.457     3396.409     1324.558        2.551        0.391      205.010       34.435        0.028      339.497       12.868      864.334
09/27/2013  20:56:00     -139.262      145.687      -35.006       53.471       49.684       31.372     2859.199     2468.490      984.216        2.408        0.316      201.541       28.372        0.020      339.512       12.895      864.344
09/27/2013  20:57:00     -127.572      160.459      -26.725       37.802       61.111       28.329     1428.986     3734.603      802.535        2.435        0.298      204.992       24.757        0.015      339.469       12.823      864.339
09/27/2013  20:58:00     -113.451       76.114      -22.851       44.523       43.211       20.882     1982.293     1867.216      436.043        1.174        0.214      136.618       11.762        0.007      339.485       12.848      864.337
09/27/2013  20:59:00     -130.607      136.689      -34.116       49.371       56.122       26.663     2437.500     3149.679      710.908        2.160        0.315      189.056       20.115        0.011      339.484       12.848      864.331
09/27/2013  21:00:00     -117.561      104.837      -28.027       48.440       50.442       26.524     2346.386     2544.369      703.545        1.559        0.280      157.516       32.023        0.041      339.505       12.883      864.341
09/27/2013  21:01:00      -85.947       50.300      -15.940       34.934       43.647       22.375     1220.359     1905.059      500.632        0.690        0.181       99.584       10.911        0.012      339.454       12.798      864.339
09/27/2013  21:02:00     -111.280       47.478       -3.681       52.631       49.297       40.417     2770.018     2430.168     1633.551        1.074        0.342      120.985       35.203        0.085      339.419       12.739      864.341
09/27/2013  21:03:00      -48.263       -2.577       -4.925       27.868       38.339       18.976      776.605     1469.903      360.104        0.248        0.130       48.332       21.082        0.190      339.391       12.692      864.348
09/27/2013  21:04:00      -78.685       -9.783      -17.548       19.454       49.356       13.273      378.445     2436.057      176.159        0.479        0.150       79.291        9.599        0.015      339.370       12.657      864.357
09/27/2013  21:05:00     -100.459      -29.808      -16.947       24.007       19.476       13.232      576.355      379.313      175.084        0.620        0.057      104.788        7.904        0.006      339.305       12.547      864.365
09/27/2013  21:06:00     -106.996      -28.518       -5.227       26.827       22.167       18.236      719.702      491.362      332.544        0.692        0.077      110.731       14.145        0.016      339.260       12.472      864.361
09/27/2013  21:07:00     -110.329      -15.287      -11.417       36.317       24.182       19.228     1318.896      584.785      369.706        0.740        0.114      111.383       20.866        0.035      339.308       12.552      864.362
09/27/2013  21:08:00     -132.220      -43.938      -10.249       47.428       35.612       23.819     2249.424     1268.213      567.329        1.180        0.204      139.330       21.824        0.025      339.298       12.535      864.353
09/27/2013  21:09:00     -116.303      -36.438      -14.351       31.337       32.300       21.946      982.033     1043.316      481.640        0.878        0.125      121.877       16.954        0.019      339.273       12.493      864.361
09/27/2013  21:10:00      -79.507      -31.043       -0.524       42.402       36.456       22.445     1797.923     1329.052      503.775        0.546        0.182       85.352       21.973        0.066      339.185       12.345      864.364
09/27/2013  21:11:00     -115.088        5.756      -10.892       25.561       42.665       23.009      653.388     1820.295      529.392        0.820        0.150      115.232       14.445        0.016      339.274       12.494      864.354
09/27/2013  21:12:00      -83.574       -4.288      -13.672       33.308       36.793       18.268     1109.433     1353.704      333.730        0.499        0.140       83.684       13.702        0.027      339.281       12.507      864.361
09/27/2013  21:13:00      -67.361      -21.114       -4.349       49.730       43.170       24.513     2473.061     1863.635      600.877        0.497        0.247       70.593       24.560        0.121      339.285       12.513      864.361
09/27/2013  21:14:00      -84.647      -24.617       -1.389       34.416       36.719       21.754     1184.449     1348.310      473.243        0.539        0.150       88.153       14.016        0.025      339.208       12.384      864.358
09/27/2013  21:15:00      -83.222       -7.065      -12.191       27.324       33.258       14.730      746.581     1106.068      216.972        0.460        0.103       83.522        7.144        0.007      339.206       12.379      864.364
09/27/2013  21:16:00     -111.219        9.069      -15.844       33.343       28.789       14.617     1111.757      828.795      213.648        0.743        0.108      111.588        8.309        0.006      339.222       12.408      864.370
09/27/2013  21:17:00     -109.910      -21.089      -13.462       29.469       35.532       13.753      868.395     1262.554      189.158        0.751        0.116      111.915        9.219        0.007      339.245       12.446      864.368
09/27/2013  21:18:00      -77.593       -5.109       -6.059       26.571       40.827       20.687      706.034     1666.843      427.945        0.444        0.140       77.761       19.975        0.066      339.175       12.328      864.372
09/27/2013  21:19:00      -94.725       11.074      -18.952       22.024       20.224       17.817      485.070      409.011      317.448        0.533        0.061       95.370        9.178        0.009      339.201       12.371      864.366
09/27/2013  21:20:00      -73.422      -15.914       -3.711       34.930       24.369       17.721     1220.078      593.824      314.022        0.389        0.106       75.127       19.387        0.067      339.188       12.351      864.352
09/27/2013  21:21:00     -105.179      -19.785       -7.616       31.583       34.163       19.802      997.493     1167.126      392.113        0.703        0.128      107.023       17.536        0.027      339.067       12.147      864.348
09/27/2013  21:22:00      -82.286      -20.757       -7.040       24.815       24.748       16.406      615.776      612.444      269.173        0.437        0.075       84.864        7.769        0.008      339.184       12.343      864.347
09/27/2013  21:23:00      -81.237       -9.527       -7.120       26.120       23.110       18.550      682.250      534.083      344.090        0.415        0.078       81.793       14.096        0.030      339.205       12.379      864.345
09/27/2013  21:24:00     -105.002      -23.714       -5.959       23.422       21.933       15.171      548.598      481.046      230.150        0.644        0.063      107.646       10.651        0.010      339.150       12.287      864.334
09/27/2013  21:25:00      -76.269        7.903       -7.099       23.589       27.960       15.316      556.426      781.750      234.584        0.375        0.079       76.678        8.047        0.011      339.153       12.292      864.327
09/27/2013  21:26:00      -96.696        8.356       -3.139       26.530       27.650       21.453      703.857      764.517      460.231        0.568        0.096       97.056       17.330        0.032      339.216       12.399      864.338
09/27/2013  21:27:00      -90.703       13.331       -8.723       21.617       28.722       14.352      467.313      824.929      205.992        0.499        0.075       91.678       10.355        0.013      339.149       12.285      864.335
09/27/2013  21:28:00      -82.977       -4.435      -11.459       26.134       24.626       15.095      682.977      606.439      227.854        0.428        0.076       83.095        9.948        0.014      339.087       12.181      864.329
09/27/2013  21:29:00      -75.987        9.300      -16.025       14.504       23.777       15.393      210.365      565.331      236.936        0.356        0.051       76.554        6.659        0.008      339.067       12.147      864.330
09/27/2013  21:30:00      -82.372       14.115      -10.632       27.311       17.383       13.948      745.900      302.161      194.549        0.417        0.062       83.572       11.842        0.020      339.098       12.198      864.353
09/27/2013  21:31:00      -90.295      -26.029       -6.574       25.647       18.131       14.429      657.748      328.720      208.195        0.503        0.060       93.972       12.841        0.019      339.080       12.168      864.356
09/27/2013  21:32:00      -72.235      -29.193        0.870       18.026       29.846       13.940      324.951      890.777      194.324        0.374        0.071       77.911       11.486        0.022      339.014       12.056      864.357
09/27/2013  21:33:00      -79.513       -3.148       -7.647       24.589       28.705       16.812      604.611      823.982      282.639        0.405        0.086       79.575       13.046        0.027      339.009       12.050      864.366
09/27/2013  21:34:00      -73.877       16.354      -16.106       15.246       26.192       14.356      232.453      686.010      206.093        0.355        0.056       75.666        6.972        0.008      339.095       12.193      864.382
09/27/2013  21:35:00      -76.823      -13.165       -9.965       17.545       22.322       10.631      307.839      498.261      113.027        0.355        0.046       77.942        9.714        0.016      339.005       12.042      864.404
09/27/2013  21:36:00      -78.636      -13.991       -5.763       23.275       18.599       15.370      541.732      345.906      236.248        0.377        0.056       79.871       14.187        0.032      338.984       12.007      864.428
09/27/2013  21:37:00      -65.883      -13.986       -1.922       24.229       18.011       13.491      587.022      324.397      182.020        0.282        0.055       67.352       10.265        0.023      338.960       11.966      864.448
09/27/2013  21:38:00      -66.269        4.505       -9.171       24.748       20.017       13.951      612.454      400.670      194.640        0.285        0.060       66.422       11.047        0.028      338.971       11.984      864.484
09/27/2013  21:39:00      -96.272        6.786      -13.334       20.161       25.352       15.157      406.481      642.727      229.738        0.539        0.064       96.511       13.201        0.019      338.969       11.981      864.509
09/27/2013  21:40:00     -114.896       31.773      -21.691       24.278       43.146       25.472      589.408     1861.576      648.821        0.889        0.155      119.208       19.418        0.027      339.102       12.205      864.523
09/27/2013  21:41:00      -96.442       41.505      -17.766       18.940       61.376       18.589      358.739     3766.970      345.559        0.790        0.224      104.994       25.452        0.059      339.047       12.113      864.531
09/27/2013  21:42:00     -104.796       20.702       -7.081       33.755       33.624       22.406     1139.381     1130.568      502.010        0.712        0.139      106.821       11.495        0.012      339.049       12.116      864.542
09/27/2013  21:43:00      -88.193       37.736      -10.544       34.650       29.853       19.797     1200.632      891.204      391.927        0.590        0.124       95.927       10.666        0.012      339.073       12.157      864.539
09/27/2013  21:44:00     -109.542       29.500      -10.204       42.011       29.361       22.271     1764.897      862.041      496.011        0.805        0.156      113.445       23.344        0.042      339.099       12.200      864.534
09/27/2013  21:45:00      -61.580       -4.706       -7.389       30.170       35.191       23.134      910.251     1238.415      535.160        0.328        0.134       61.760       18.838        0.093      338.993       12.023      864.533
09/27/2013  21:46:00      -72.762       69.419      -14.536       27.436       47.116       24.611      752.741     2219.940      605.708        0.695        0.179      100.565       25.070        0.062      339.143       12.275      864.524
09/27/2013  21:47:00      -82.143       24.079      -15.533       28.445       33.134       15.032      809.103     1097.846      225.976        0.485        0.107       85.600       11.859        0.019      339.040       12.101      864.518
09/27/2013  21:48:00      -79.617       45.553       -9.108       32.113       46.047       24.045     1031.253     2120.289      578.176        0.611        0.186       91.727       19.374        0.045      339.079       12.166      864.510
09/27/2013  21:49:00      -99.975       -3.355      -13.555       22.192       14.534       11.412      492.487      211.229      130.223        0.551        0.042      100.031        8.432        0.007      338.967       11.979      864.517
09/27/2013  21:50:00      -93.394      -15.378       -9.082       14.696       12.895        8.410      215.965      166.287       70.734        0.475        0.023       94.652        3.556        0.001      338.896       11.858      864.523
09/27/2013  21:51:00      -90.003      -37.856       -3.429       12.438       11.916       12.175      154.712      141.998      148.230        0.500        0.022       97.640        6.901        0.005      338.871       11.817      864.509
09/27/2013  21:52:00      -82.307      -28.815       -6.411       21.691       16.774       14.997      470.507      281.370      224.913        0.431        0.049       87.205       13.734        0.025      338.836       11.759      864.502
09/27/2013  21:53:00      -76.096      -22.956      -13.175       17.361       12.965       10.605      301.406      168.081      112.466        0.354        0.029       79.483        3.254        0.002      338.872       11.817      864.495
09/27/2013  21:54:00      -86.107      -12.504      -14.540       21.446       14.421        9.223      459.932      207.966       85.059        0.427        0.038       87.010        8.863        0.010      338.828       11.743      864.489
09/27/2013  21:55:00      -88.797      -10.589       -8.730       21.788       14.934       12.577      474.717      223.019      158.181        0.446        0.043       89.426       13.440        0.023      338.819       11.729      864.478
09/27/2013  21:56:00      -80.336      -22.705       -4.073       22.934       24.587       14.655      525.979      604.510      214.761        0.417        0.067       83.483       12.543        0.023      338.758       11.627      864.478
09/27/2013  21:57:00      -77.565       -4.615       -4.950       15.938       16.661       12.598      254.010      277.579      158.704        0.338        0.035       77.702        5.883        0.006      338.758       11.627      864.484
09/27/2013  21:58:00      -72.551      -18.371       -7.350       23.531       24.098       14.280      553.695      580.690      203.909        0.350        0.067       74.841       14.424        0.037      338.835       11.757      864.489
09/27/2013  21:59:00      -76.393      -10.153      -11.213       17.662       14.933       14.298      311.932      222.992      204.435        0.340        0.037       77.065        8.976        0.014      338.781       11.666      864.481
09/27/2013  22:00:00      -66.827      -19.849       -4.348       17.367       22.274       12.420      301.598      496.151      154.249        0.292        0.048       69.712        8.006        0.013      338.718       11.559      864.470
09/27/2013  22:01:00      -51.482       -8.569       -8.042       13.447       13.386        9.954      180.809      179.183       99.086        0.162        0.023       52.190        4.697        0.008      338.728       11.576      864.470
09/27/2013  22:02:00      -64.588      -37.890       -6.043       12.955       18.365        9.025      167.836      337.273       81.455        0.312        0.029       74.882        7.942        0.011      338.680       11.495      864.463
09/27/2013  22:03:00      -42.029      -19.976       -4.570       24.384       10.929       11.382      594.586      119.438      129.558        0.151        0.042       46.535        8.573        0.034      338.628       11.408      864.455
09/27/2013  22:04:00      -60.751      -35.928       -5.145       10.938       12.291        7.793      119.646      151.063       60.729        0.267        0.017       70.580        4.921        0.005      338.643       11.432      864.451
09/27/2013  22:05:00      -81.390      -32.842      -10.895       11.261       13.112       10.043      126.815      171.931      100.854        0.411        0.020       87.767        6.494        0.005      338.638       11.426      864.456
09/27/2013  22:06:00      -37.145      -23.087        0.662       41.488       26.827       16.924     1721.218      719.681      286.411        0.232        0.136       43.735       16.597        0.144      338.533       11.248      864.461
09/27/2013  22:07:00      -40.155      -52.415        1.306       38.446       31.948       20.404     1478.096     1020.664      416.343        0.364        0.146       66.028       20.497        0.096      338.525       11.235      864.468
09/27/2013  22:08:00      -55.345      -75.781        1.056       21.605       31.082       18.587      466.789      966.083      345.494        0.529        0.089       93.839       14.612        0.024      338.562       11.298      864.476
09/27/2013  22:09:00      -60.776      -63.649      -10.406       47.590       30.423       22.554     2264.817      925.554      508.668        0.578        0.185       88.005        6.776        0.006      338.487       11.171      864.492
09/27/2013  22:10:00      -84.097      -81.095       -2.998       34.353       40.403       25.500     1180.125     1632.377      650.273        0.856        0.173      116.828       13.181        0.013      338.371       10.976      864.493
09/27/2013  22:11:00      -80.519      -48.242       -2.754       49.112       40.924       24.275     2411.989     1674.758      589.266        0.675        0.234       93.865       21.430        0.052      338.242       10.759      864.479
09/27/2013  22:12:00     -130.290      -94.475       -3.287       42.079       33.473       20.622     1770.678     1120.410      425.262        1.461        0.166      160.938       18.056        0.013      338.220       10.723      864.462
09/27/2013  22:13:00     -122.415      -83.107       -1.953       60.367       38.761       26.931     3644.224     1502.442      725.294        1.388        0.294      147.960       28.763        0.038      338.136       10.582      864.443
09/27/2013  22:14:00     -106.178      -79.916        3.218       57.038       41.697       26.418     3253.385     1738.653      697.911        1.168        0.284      132.893       30.405        0.052      338.075       10.480      864.426
09/27/2013  22:15:00     -116.567      -82.569       -0.335       48.469       37.724       23.412     2349.227     1423.064      548.145        1.236        0.216      142.848       21.600        0.023      338.114       10.546      864.418
09/27/2013  22:16:00     -120.044      -83.202        2.837       52.173       39.070       25.939     2721.980     1526.484      672.835        1.313        0.246      146.059       26.872        0.034      338.106       10.533      864.418
09/27/2013  22:17:00      -98.244      -79.261        2.019       39.470       38.703       26.263     1557.906     1497.888      689.736        0.984        0.187      126.231       20.508        0.026      338.095       10.515      864.423
09/27/2013  22:18:00     -127.656      -77.270       -4.025       51.194       29.839       23.836     2620.856      890.337      568.137        1.318        0.204      149.220       17.407        0.014      338.112       10.542      864.431
09/27/2013  22:19:00     -112.369      -74.725        2.435       54.070       35.963       32.630     2923.531     1293.355     1064.712        1.175        0.264      134.947       32.581        0.058      338.087       10.499      864.437
09/27/2013  22:20:00     -117.001      -57.041      -12.540       40.457       30.967       21.092     1636.756      958.986      444.856        1.007        0.152      130.165       19.752        0.023      338.122       10.559      864.461
09/27/2013  22:21:00     -124.571      -24.390       -3.075       30.157       22.266       20.415      909.458      495.761      416.760        0.897        0.091      126.937       19.369        0.023      338.126       10.566      864.480
09/27/2013  22:22:00     -102.004      -13.497        2.528       35.164       30.759       21.104     1236.508      946.116      445.370        0.661        0.131      102.893       15.025        0.021      338.052       10.441      864.481
09/27/2013  22:23:00     -137.488      -36.742       -7.041       32.013       30.168       17.641     1024.804      910.090      311.197        1.127        0.112      142.313       15.929        0.013      337.916       10.214      864.482
09/27/2013  22:24:00     -148.946      -56.353       -3.733       33.612       21.535       16.443     1129.778      463.767      270.373        1.362        0.093      159.250       13.790        0.007      337.945       10.263      864.482
09/27/2013  22:25:00     -136.370      -66.759       -5.315       40.379       31.982       18.050     1630.464     1022.837      325.818        1.303        0.149      151.834       11.589        0.006      338.102       10.525      864.477
09/27/2013  22:26:00     -141.334      -41.345       -0.589       42.975       39.157       18.708     1846.850     1533.293      349.989        1.271        0.187      147.257       22.891        0.024      338.100       10.522      864.496
09/27/2013  22:27:00     -154.103      -45.504        0.365       46.559       32.428       22.238     2167.786     1051.584      494.540        1.477        0.186      160.681       24.543        0.023      338.048       10.435      864.505
09/27/2013  22:28:00     -162.184      -59.193       -2.161       57.090       31.804       20.181     3259.265     1011.522      407.276        1.724        0.234      172.648       25.627        0.022      338.025       10.397      864.516
09/27/2013  22:29:00     -169.424      -68.671      -11.968       28.896       23.539       16.712      834.958      554.088      279.275        1.762        0.083      182.812       16.410        0.008      337.990       10.338      864.538
09/27/2013  22:30:00     -141.872      -66.979        0.801       47.962       34.719       25.353     2300.306     1205.410      642.794        1.438        0.207      156.888       26.703        0.029      337.939       10.253      864.552
09/27/2013  22:31:00     -116.584      -73.551        0.281       42.535       26.599       19.215     1809.207      707.520      369.225        1.094        0.144      137.846       16.513        0.014      337.973       10.310      864.558
09/27/2013  22:32:00      -76.103      -47.659        0.162       33.773       27.380       18.310     1140.627      749.645      335.239        0.514        0.111       89.794       14.972        0.028      338.019       10.387      864.571
09/27/2013  22:33:00     -123.518      -46.432      -16.424       21.169       23.982       14.919      448.117      575.154      222.579        0.946        0.062      131.957       10.870        0.007      338.039       10.419      864.572
09/27/2013  22:34:00     -126.980      -41.998      -11.937       27.669       14.756       16.613      765.590      217.747      276.007        0.964        0.063      133.745       12.895        0.009      337.946       10.264      864.562
09/27/2013  22:35:00     -135.531      -55.144       -7.547       14.186       11.877       11.286      201.233      141.065      127.372        1.097        0.023      146.319        9.496        0.004      337.974       10.310      864.560
09/27/2013  22:36:00     -101.306      -32.986        1.073       35.217       27.319       18.282     1240.227      746.327      334.248        0.684        0.116      106.541       18.439        0.030      337.953       10.276      864.553
09/27/2013  22:37:00     -103.684       -9.784       -3.942       38.689       21.720       17.201     1496.812      471.755      295.891        0.656        0.113      104.145       19.359        0.035      337.998       10.350      864.549
09/27/2013  22:38:00     -125.786       -6.648      -10.944       28.139       18.837       16.888      791.809      354.827      285.205        0.871        0.072      125.962       15.340        0.015      338.019       10.386      864.544
09/27/2013  22:39:00     -143.042       -7.215      -11.183       36.547       20.390       19.423     1335.653      415.762      377.258        1.138        0.106      143.224       17.470        0.015      338.046       10.430      864.540
09/27/2013  22:40:00     -120.003      -26.426       -6.902       33.329       21.983       15.505     1110.824      483.251      240.418        0.849        0.092      122.878       15.001        0.015      338.070       10.473      864.529
09/27/2013  22:41:00     -119.733      -28.084       -4.982       28.563       25.915       22.945      815.852      671.561      526.451        0.858        0.101      122.982       17.657        0.021      337.991       10.339      864.522
09/27/2013  22:42:00      -91.784      -33.916       -0.414       24.904       23.932       15.794      620.200      572.745      249.460        0.551        0.072       97.850       11.914        0.015      337.881       10.155      864.517
09/27/2013  22:43:00     -103.594      -22.558       -1.319       37.899       24.451       20.619     1436.354      597.830      425.154        0.685        0.123      106.022       18.723        0.031      337.823       10.058      864.503
09/27/2013  22:44:00     -127.950      -41.119       -6.563       18.112       22.038       13.601      328.050      485.693      184.988        0.955        0.050      134.394       10.218        0.006      337.819       10.050      864.495
09/27/2013  22:45:00     -112.723      -60.848       -5.473       17.253       21.568       16.292      297.682      465.162      265.431        0.873        0.051      128.097        8.928        0.005      337.732        9.906      864.496
09/27/2013  22:46:00     -119.640      -40.802      -12.586       22.996       28.578       12.838      528.795      816.715      164.815        0.882        0.076      126.406        7.182        0.003      337.753        9.940      864.490
09/27/2013  22:47:00     -120.609      -20.354       -4.441       33.706       25.350       19.491     1136.088      642.600      379.905        0.857        0.108      122.314       17.735        0.021      337.774        9.974      864.485
09/27/2013  22:48:00     -109.637      -29.656       -3.730       28.299       21.680       13.771      800.842      470.011      189.647        0.719        0.073      113.577       10.074        0.008      337.730        9.903      864.497
09/27/2013  22:49:00     -102.341        0.564       -8.471       44.492       35.216       23.052     1979.527     1240.157      531.383        0.715        0.188      102.343       20.041        0.038      337.782        9.989      864.495
09/27/2013  22:50:00      -99.897      -14.639       -0.917       57.923       31.563       28.684     3355.126      996.222      822.751        0.768        0.259      100.964       27.001        0.072      337.773        9.974      864.488
09/27/2013  22:51:00      -93.293      -38.082       -0.981       47.294       36.761       27.202     2236.692     1351.396      739.972        0.724        0.216      100.766       26.983        0.072      337.730        9.902      864.491
09/27/2013  22:52:00     -111.532      -19.490       -7.378       48.065       26.166       21.339     2310.240      684.646      455.359        0.816        0.173      113.222       21.930        0.038      337.728        9.898      864.490
09/27/2013  22:53:00      -94.698      -11.701      -13.264       31.478       27.987       18.187      990.851      783.278      330.752        0.569        0.105       95.419        6.012        0.004      337.712        9.870      864.484
09/27/2013  22:54:00      -80.910      -13.930      -12.101       29.056       26.370       16.169      844.269      695.385      261.436        0.434        0.090       82.100        9.311        0.013      337.777        9.981      864.483
09/27/2013  22:55:00      -86.912      -26.071      -11.097       19.289       29.563       13.716      372.051      873.997      188.129        0.490        0.072       90.738       10.382        0.013      337.674        9.809      864.494
09/27/2013  22:56:00     -107.782       -9.677      -11.257       34.359       32.133       19.044     1180.556     1032.528      362.682        0.721        0.129      108.216       15.316        0.020      337.691        9.836      864.485
09/27/2013  22:57:00      -93.953      -27.797      -14.557       30.573       35.316       18.576      934.730     1247.197      345.052        0.617        0.126       97.979       13.037        0.018      337.672        9.806      864.496
09/27/2013  22:58:00      -46.155       -4.378        6.131       43.444       30.057       23.158     1887.402      903.393      536.277        0.276        0.166       46.362       18.623        0.161      337.530        9.566      864.503
09/27/2013  22:59:00      -89.577        1.619      -15.345       36.919       30.415       22.457     1362.989      925.051      504.311        0.553        0.140       89.591       18.810        0.044      337.608        9.697      864.499
09/27/2013  23:00:00      -96.553       -5.178      -12.221       39.960       37.063       20.782     1596.781     1373.657      431.885        0.645        0.170       96.692       14.332        0.022      337.561        9.618      864.507
09/27/2013  23:01:00     -106.302       -8.290      -13.061       47.546       37.164       24.867     2260.629     1381.140      618.358        0.790        0.213      106.625       25.617        0.058      337.502        9.520      864.514
09/27/2013  23:02:00      -72.442        2.996      -13.553       49.183       27.016       22.369     2418.996      729.840      500.359        0.454        0.182       72.504       25.616        0.125      337.524        9.555      864.510
09/27/2013  23:03:00      -87.537       -2.842       -7.097       44.446       21.087       18.771     1975.445      444.676      352.355        0.525        0.139       87.584       22.318        0.065      337.558        9.614      864.499
09/27/2013  23:04:00      -54.693      -13.437       -5.001       23.234       21.860       17.655      539.837      477.875      311.711        0.226        0.066       56.319       13.192        0.055      337.480        9.483      864.491
09/27/2013  23:05:00      -78.278        3.549      -13.904       33.337       24.184       13.415     1111.327      584.884      179.961        0.410        0.094       78.358       12.312        0.025      337.501        9.518      864.479
09/27/2013  23:06:00      -53.616      -33.630       -0.751       26.314       21.066       15.530      692.448      443.774      241.173        0.269        0.069       63.290       13.875        0.048      337.543        9.587      864.470
09/27/2013  23:07:00      -59.259       -6.572      -11.255       16.874       20.528       12.674      284.739      421.398      160.621        0.227        0.043       59.623       10.861        0.033      337.567        9.628      864.467
09/27/2013  23:08:00      -89.011      -19.185      -14.068       11.862       15.033       12.002      140.715      225.979      144.040        0.450        0.026       91.055        6.560        0.005      337.601        9.684      864.456
09/27/2013  23:09:00      -65.891      -36.354       -4.542       28.236       18.327       14.798      797.266      335.883      218.972        0.352        0.068       75.255       16.268        0.047      337.562        9.619      864.441
09/27/2013  23:10:00      -60.966      -41.561       -3.775       27.940       21.200       18.478      780.644      449.460      341.432        0.351        0.079       73.785       16.268        0.049      337.496        9.508      864.434
09/27/2013  23:11:00      -81.686      -45.994      -17.779       14.752       12.096       11.051      217.630      146.318      122.129        0.480        0.024       93.745        4.530        0.002      337.521        9.552      864.423
09/27/2013  23:12:00      -88.789      -35.002      -11.725       13.096       18.771       14.261      171.501      352.358      203.380        0.499        0.036       95.439        6.354        0.004      337.481        9.484      864.404
09/27/2013  23:13:00     -104.594      -25.231      -14.497       18.620       19.069       14.168      346.714      363.631      200.725        0.635        0.046      107.594       10.272        0.009      337.441        9.417      864.392
09/27/2013  23:14:00     -103.911      -35.276      -14.503       13.777       10.862        8.743      189.813      117.988       76.435        0.632        0.019      109.736        6.136        0.003      337.415        9.375      864.402
09/27/2013  23:15:00      -96.990      -37.498      -14.620       17.317       18.754       12.190      299.884      351.726      148.586        0.591        0.040      103.986        7.110        0.005      337.399        9.345      864.403
09/27/2013  23:16:00      -84.138      -31.274      -10.238       17.745       13.592        9.413      314.884      184.740       88.601        0.438        0.029       89.762        7.329        0.007      337.430        9.398      864.392
09/27/2013  23:17:00      -78.690      -35.738      -15.114       16.331       13.954        8.872      266.712      194.725       78.717        0.412        0.027       86.425        4.201        0.002      337.442        9.417      864.385
09/27/2013  23:18:00      -75.998      -32.567      -10.993       20.849       21.177       13.799      434.700      448.483      190.404        0.402        0.054       82.682       11.311        0.019      337.402        9.351      864.379
09/27/2013  23:19:00      -82.265      -37.819       -8.934       19.130       14.252       10.161      365.945      203.132      103.237        0.447        0.034       90.542        6.604        0.005      337.438        9.413      864.362
09/27/2013  23:20:00      -69.536      -39.747       -8.404       12.832       13.225       13.420      164.654      174.905      180.102        0.350        0.026       80.094        8.713        0.012      337.404        9.354      864.357
09/27/2013  23:21:00      -70.568      -33.569      -14.307       12.565       12.556        9.110      157.883      157.650       83.001        0.335        0.020       78.145        9.566        0.015      337.350        9.265      864.360
09/27/2013  23:22:00      -76.591      -48.773      -16.784        9.947       20.707       11.119       98.947      428.792      123.640        0.459        0.033       90.802        3.333        0.001      337.357        9.275      864.364
09/27/2013  23:23:00      -74.389      -55.152      -13.285       20.403       13.805       14.570      416.282      190.586      212.297        0.479        0.041       92.604        5.435        0.003      337.348        9.261      864.367
09/27/2013  23:24:00      -70.886      -46.447       -8.909       21.621       12.852       11.619      467.483      165.169      135.008        0.401        0.038       84.748        6.118        0.005      337.362        9.284      864.365
09/27/2013  23:25:00      -58.090      -53.039       -1.916       32.718       23.427       15.794     1070.486      548.845      249.459        0.403        0.093       78.662       10.469        0.018      337.344        9.256      864.371
09/27/2013  23:26:00      -61.994      -64.467       -5.450       35.924       25.863       21.224     1290.505      668.891      450.445        0.522        0.120       89.438       16.804        0.035      337.318        9.212      864.375
09/27/2013  23:27:00      -48.783      -27.295       -1.752       31.141       28.604       16.624      969.782      818.168      276.351        0.260        0.103       55.900       13.897        0.062      337.350        9.266      864.367
09/27/2013  23:28:00      -52.117      -12.365       -6.465       31.318       26.136       17.845      980.796      683.109      318.461        0.245        0.099       53.564        8.387        0.025      337.303        9.186      864.365
09/27/2013  23:29:00      -71.646      -45.043       -3.489       32.588       40.099       20.841     1061.955     1607.933      434.366        0.514        0.155       84.629       14.118        0.028      337.210        9.031      864.365
09/27/2013  23:30:00     -117.053      -80.772       -9.203       39.080       44.370       19.137     1527.212     1968.694      366.242        1.209        0.193      142.217       12.181        0.007      337.168        8.960      864.369
09/27/2013  23:31:00     -129.980      -89.201      -12.971       45.907       43.656       32.475     2107.433     1905.858     1054.622        1.504        0.253      157.644       23.077        0.021      337.143        8.917      864.379
09/27/2013  23:32:00     -101.245      -87.214      -10.032       65.375       40.840       30.896     4273.914     1667.928      954.569        1.243        0.345      133.629       28.681        0.046      337.122        8.882      864.402
09/27/2013  23:33:00     -138.120     -107.664       -0.728       60.105       38.293       27.709     3612.634     1466.338      767.775        1.826        0.292      175.125       33.195        0.036      337.093        8.832      864.422
09/27/2013  23:34:00     -117.622      -84.185       -3.629       51.350       37.576       23.348     2636.790     1411.970      545.134        1.276        0.230      144.645       25.197        0.030      337.030        8.727      864.436
09/27/2013  23:35:00      -95.777      -74.954       -3.541       48.084       36.326       24.836     2312.096     1319.607      616.824        0.953        0.212      121.619       15.369        0.016      337.040        8.745      864.435
09/27/2013  23:36:00      -98.520      -75.664        3.782       40.860       30.678       23.790     1669.546      941.162      565.976        0.931        0.159      124.223       17.765        0.020      337.008        8.693      864.444
09/27/2013  23:37:00      -71.816      -34.182        8.321       59.596       26.317       25.020     3551.731      692.586      625.999        0.563        0.244       79.536       27.215        0.117      336.987        8.656      864.441
09/27/2013  23:38:00      -69.225      -45.809        1.014       43.333       31.487       22.028     1877.785      991.431      485.215        0.512        0.168       83.010       19.940        0.058      336.998        8.675      864.421
09/27/2013  23:39:00     -106.933      -59.090       -4.808       37.740       28.255       17.810     1424.281      798.317      317.187        0.874        0.127      122.173       11.053        0.008      337.073        8.800      864.416
09/27/2013  23:40:00     -115.170      -66.832      -10.988       38.325       26.743       19.373     1468.834      715.168      375.324        1.020        0.128      133.157       13.610        0.010      337.020        8.712      864.412
09/27/2013  23:41:00     -110.678      -57.908       -5.287       37.973       23.897       20.020     1441.912      571.051      400.795        0.902        0.121      124.912       17.040        0.019      336.969        8.626      864.398
09/27/2013  23:42:00     -109.603      -43.956       -5.076       15.075       15.841       12.639      227.257      250.949      159.754        0.730        0.032      118.089        6.250        0.003      337.008        8.691      864.385
09/27/2013  23:43:00     -103.366      -28.180       -7.185       15.633       16.531       10.314      244.390      273.263      106.375        0.608        0.031      107.138        8.195        0.006      337.042        8.748      864.373
09/27/2013  23:44:00      -84.314      -25.761       -2.031       13.928       14.041       13.188      193.985      197.162      173.930        0.417        0.028       88.162        9.219        0.011      337.024        8.718      864.358
09/27/2013  23:45:00      -92.759      -20.710       -3.780       18.642        9.043       10.540      347.537       81.783      111.092        0.479        0.027       95.043        7.352        0.006      337.012        8.698      864.336
09/27/2013  23:46:00     -112.546      -27.240       -7.191       10.709       13.500       11.000      114.673      182.245      120.993        0.694        0.021      115.796        3.624        0.001      337.006        8.688      864.314
09/27/2013  23:47:00     -111.312      -38.707       -8.218       14.848       14.367       10.102      220.459      206.420      102.045        0.724        0.026      117.850        5.517        0.002      336.884        8.485      864.295
09/27/2013  23:48:00     -107.829      -47.783       -7.499       18.930       13.771       12.228      358.350      189.639      149.521        0.733        0.035      117.942       11.192        0.009      336.872        8.464      864.272
09/27/2013  23:49:00     -120.840      -40.179       -9.611       15.294       16.931       12.416      233.902      286.648      154.167        0.849        0.034      127.345        8.486        0.004      336.897        8.505      864.253
09/27/2013  23:50:00     -107.436      -40.992       -1.597       21.705       20.720       11.699      471.113      429.336      136.874        0.713        0.052      114.991       11.326        0.010      336.921        8.546      864.246
09/27/2013  23:51:00     -104.770      -39.625       -3.561       20.672       14.217       11.673      427.321      202.112      136.259        0.666        0.038      112.013       10.139        0.008      336.934        8.568      864.236
09/27/2013  23:52:00      -95.489      -26.778       -0.293       26.174       23.124       13.068      685.097      534.722      170.771        0.561        0.070       99.173       14.550        0.022      336.932        8.563      864.226
09/27/2013  23:53:00      -97.718      -21.557       -1.235       19.232       15.713       14.795      369.874      246.901      218.878        0.543        0.042      100.067        8.874        0.008      336.974        8.634      864.220
09/27/2013  23:54:00      -78.620      -36.998        2.398       26.690       20.861       12.901      712.333      435.164      166.426        0.443        0.066       86.891       10.224        0.014      336.992        8.664      864.220
09/27/2013  23:55:00      -69.186      -41.508       -1.187       28.200       28.511       20.319      795.246      812.874      412.874        0.427        0.101       80.682       18.543        0.053      337.029        8.725      864.216
09/27/2013  23:56:00      -33.710      -22.416        5.689       30.052       23.477       13.677      903.129      551.171      187.051        0.166        0.082       40.482       12.587        0.097      337.001        8.679      864.205
09/27/2013  23:57:00      -16.320      -16.466        4.669       24.138       28.114       16.643      582.663      790.394      276.979        0.110        0.083       23.183       16.371        0.499      336.965        8.619      864.196
09/27/2013  23:58:00      -24.204      -24.809        9.481       36.713       24.537       18.724     1347.835      602.079      350.572        0.180        0.115       34.660       19.873        0.329      336.923        8.550      864.195
09/27/2013  23:59:00      -87.173      -47.472        3.164       43.365       34.579       24.199     1880.484     1195.724      585.572        0.676        0.183       99.261       25.926        0.068      336.817        8.374      864.184
